Observation data for Dozier on 01/21/2019      Previous  Date  Next       Current Mesonet Observations  Soil Data  Daily Summary Page  Observations in Plain Language
KDO1 210600Z 08003KT 00/M04 A3002 RMK A01 T00011040  RH  074%=      5-min Rain = 0
KDO1 210601Z 08002KT 00/M04 A3002 RMK A01 T00011040  RH  074%=      5-min Rain = 0
KDO1 210602Z 08002KT 00/M04 A3002 RMK A01 T00011040  RH  074%=      5-min Rain = 0
KDO1 210603Z 08002KT 00/M04 A3002 RMK A01 T00011040  RH  074%=      5-min Rain = 0
KDO1 210604Z 09002KT 00/M04 A3002 RMK A01 T00011040  RH  074%=      5-min Rain = 0
KDO1 210605Z 09002KT 00/M04 A3002 RMK A01 T00011040  RH  074%=      5-min Rain = 0
KDO1 210606Z 09002KT 00/04 A3002 RMK A01 T00000-40  RH  074%=      5-min Rain = 0
KDO1 210607Z 09002KT 00/04 A3002 RMK A01 T00000-40  RH  074%=      5-min Rain = 0
KDO1 210608Z 10003KT 00/04 A3001 RMK A01 T00000-40  RH  074%=      5-min Rain = 0
KDO1 210609Z 09002KT 00/04 A3001 RMK A01 T00000-40  RH  074%=      5-min Rain = 0
KDO1 210610Z 09002KT 00/M04 A3001 RMK A01 T00011040  RH  074%=      5-min Rain = 0
KDO1 210611Z 09002KT 00/M04 A3001 RMK A01 T00011040  RH  074%=      5-min Rain = 0
KDO1 210612Z 10002KT 00/M04 A3001 RMK A01 T00011040  RH  074%=      5-min Rain = 0
KDO1 210613Z 10002KT 00/M04 A3001 RMK A01 T00011040  RH  074%=      5-min Rain = 0
KDO1 210614Z 09002KT 00/M04 A3001 RMK A01 T00011040  RH  074%=      5-min Rain = 0
KDO1 210615Z 09002KT 00/M04 A3001 RMK A01 T00011040  RH  074%=      5-min Rain = 0
KDO1 210616Z 09002KT 00/M04 A3001 RMK A01 T00011040  RH  074%=      5-min Rain = 0
KDO1 210617Z 09002KT 00/M04 A3001 RMK A01 T00011040  RH  074%=      5-min Rain = 0
KDO1 210618Z 09002KT 00/M04 A3001 RMK A01 T00011040  RH  074%=      5-min Rain = 0
KDO1 210619Z 08002KT 00/M04 A3001 RMK A01 T00011040  RH  074%=      5-min Rain = 0
KDO1 210620Z 09002KT 00/M04 A3001 RMK A01 T00011040  RH  074%=      5-min Rain = 0
KDO1 210621Z 09002KT 00/04 A3001 RMK A01 T00000-40  RH  074%=      5-min Rain = 0
KDO1 210622Z 09002KT 00/04 A3001 RMK A01 T00-00-40  RH  074%=      5-min Rain = 0
KDO1 210623Z 10003KT 00/04 A3001 RMK A01 T00-00-40  RH  074%=      5-min Rain = 0
KDO1 210624Z 11003KT 00/04 A3001 RMK A01 T00-00-40  RH  075%=      5-min Rain = 0
KDO1 210625Z 11003KT M00/M04 A3001 RMK A01 T10011040  RH  075%=      5-min Rain = 0
KDO1 210626Z 10003KT 00/04 A3001 RMK A01 T00-00-40  RH  074%=      5-min Rain = 0
KDO1 210627Z 10003KT 00/04 A3001 RMK A01 T00-00-40  RH  074%=      5-min Rain = 0
KDO1 210628Z 11003KT 00/04 A3001 RMK A01 T00-00-40  RH  074%=      5-min Rain = 0
KDO1 210629Z 10003KT 00/04 A3001 RMK A01 T00000-40  RH  074%=      5-min Rain = 0
KDO1 210630Z 11003KT 00/M04 A3001 RMK A01 T00011040  RH  074%=      5-min Rain = 0
KDO1 210631Z 11003KT 00/M04 A3001 RMK A01 T00011040  RH  074%=      5-min Rain = 0
KDO1 210632Z 12002KT 00/04 A3001 RMK A01 T00000-40  RH  074%=      5-min Rain = 0
KDO1 210633Z 12002KT 00/04 A3001 RMK A01 T00-00-40  RH  074%=      5-min Rain = 0
KDO1 210634Z 12002KT M00/M04 A3001 RMK A01 T10011040  RH  075%=      5-min Rain = 0
KDO1 210635Z 12002KT M00/M04 A3001 RMK A01 T10011041  RH  075%=      5-min Rain = 0
KDO1 210636Z 12002KT M00/M04 A3001 RMK A01 T10021041  RH  075%=      5-min Rain = 0
KDO1 210637Z 12002KT M00/M04 A3001 RMK A01 T10021041  RH  075%=      5-min Rain = 0
KDO1 210638Z 11002KT M00/M04 A3001 RMK A01 T10011040  RH  075%=      5-min Rain = 0
KDO1 210639Z 11002KT M00/M04 A30 RMK A01 T10011040  RH  075%=      5-min Rain = 0
KDO1 210640Z 10002KT M00/M04 A30 RMK A01 T10011040  RH  075%=      5-min Rain = 0
KDO1 210641Z 11002KT M00/M04 A30 RMK A01 T10011040  RH  075%=      5-min Rain = 0
KDO1 210642Z 11002KT M00/M04 A30 RMK A01 T10011041  RH  075%=      5-min Rain = 0
KDO1 210643Z 11002KT M00/M04 A30 RMK A01 T10011040  RH  075%=      5-min Rain = 0
KDO1 210644Z 10002KT M00/M04 A30 RMK A01 T10011040  RH  075%=      5-min Rain = 0
KDO1 210645Z 10002KT M00/M04 A30 RMK A01 T10011040  RH  075%=      5-min Rain = 0
KDO1 210646Z 10002KT M00/M04 A30 RMK A01 T10021041  RH  075%=      5-min Rain = 0
KDO1 210647Z 09002KT M00/M04 A30 RMK A01 T10021041  RH  075%=      5-min Rain = 0
KDO1 210648Z 08002KT M00/M04 A30 RMK A01 T10021041  RH  075%=      5-min Rain = 0
KDO1 210649Z 09002KT M00/M04 A30 RMK A01 T10021041  RH  075%=      5-min Rain = 0
KDO1 210650Z 09002KT M00/M04 A30 RMK A01 T10031041  RH  075%=      5-min Rain = 0
KDO1 210651Z 09002KT M00/M04 A30 RMK A01 T10031041  RH  075%=      5-min Rain = 0
KDO1 210652Z 10002KT M00/M04 A30 RMK A01 T10031041  RH  075%=      5-min Rain = 0
KDO1 210653Z 09002KT M00/M04 A30 RMK A01 T10031041  RH  076%=      5-min Rain = 0
KDO1 210654Z 10002KT M00/M04 A30 RMK A01 T10031041  RH  076%=      5-min Rain = 0
KDO1 210655Z 10002KT M00/M04 A30 RMK A01 T10031041  RH  076%=      5-min Rain = 0
KDO1 210656Z 09002KT M00/M04 A30 RMK A01 T10031041  RH  076%=      5-min Rain = 0
KDO1 210657Z 09001KT M00/M04 A30 RMK A01 T10031041  RH  076%=      5-min Rain = 0
KDO1 210658Z 10001KT M00/M04 A30 RMK A01 T10041041  RH  076%=      5-min Rain = 0
KDO1 210659Z 10001KT M00/M04 A30 RMK A01 T10041041  RH  076%=      5-min Rain = 0
KDO1 210700Z 10001KT M00/M04 A30 RMK A01 T10041041  RH  076%=      5-min Rain = 0
KDO1 210701Z 10001KT M00/M04 A30 RMK A01 T10041041  RH  076%=      5-min Rain = 0
KDO1 210702Z 09001KT M01/M04 A30 RMK A01 T10051041  RH  076%=      5-min Rain = 0
KDO1 210703Z 09001KT M00/M04 A30 RMK A01 T10041041  RH  076%=      5-min Rain = 0
KDO1 210704Z 09002KT M01/M04 A30 RMK A01 T10051041  RH  076%=      5-min Rain = 0
KDO1 210705Z 09002KT M01/M04 A2999 RMK A01 T10051041  RH  076%=      5-min Rain = 0
KDO1 210706Z 09002KT M01/M04 A2999 RMK A01 T10051041  RH  076%=      5-min Rain = 0
KDO1 210707Z 09002KT M01/M04 A2999 RMK A01 T10051042  RH  077%=      5-min Rain = 0
KDO1 210708Z 09001KT M01/M04 A2999 RMK A01 T10051041  RH  077%=      5-min Rain = 0
KDO1 210709Z 09001KT M01/M04 A2999 RMK A01 T10051041  RH  077%=      5-min Rain = 0
KDO1 210710Z 08001KT M01/M04 A2999 RMK A01 T10051041  RH  077%=      5-min Rain = 0
KDO1 210711Z 08001KT M01/M04 A2999 RMK A01 T10061041  RH  077%=      5-min Rain = 0
KDO1 210712Z 08001KT M01/M04 A2999 RMK A01 T10061041  RH  077%=      5-min Rain = 0
KDO1 210713Z 08001KT M01/M04 A2999 RMK A01 T10061041  RH  077%=      5-min Rain = 0
KDO1 210714Z 08002KT M01/M04 A2999 RMK A01 T10061041  RH  077%=      5-min Rain = 0
KDO1 210715Z 08001KT M01/M04 A2999 RMK A01 T10061041  RH  077%=      5-min Rain = 0
KDO1 210716Z 08001KT M01/M04 A2999 RMK A01 T10061041  RH  077%=      5-min Rain = 0
KDO1 210717Z 07001KT M01/M04 A2999 RMK A01 T10071041  RH  077%=      5-min Rain = 0
KDO1 210718Z 07002KT M01/M04 A2999 RMK A01 T10071041  RH  077%=      5-min Rain = 0
KDO1 210719Z 06001KT M01/M04 A2999 RMK A01 T10061041  RH  077%=      5-min Rain = 0
KDO1 210720Z 05001KT M01/M04 A2999 RMK A01 T10061041  RH  077%=      5-min Rain = 0
KDO1 210721Z 05001KT M01/M04 A2999 RMK A01 T10071041  RH  078%=      5-min Rain = 0
KDO1 210722Z 06001KT M01/M04 A2999 RMK A01 T10071041  RH  078%=      5-min Rain = 0
KDO1 210723Z 06001KT M01/M04 A2999 RMK A01 T10071041  RH  078%=      5-min Rain = 0
KDO1 210724Z 06001KT M01/M04 A2999 RMK A01 T10071041  RH  078%=      5-min Rain = 0
KDO1 210725Z 06001KT M01/M04 A2999 RMK A01 T10071041  RH  078%=      5-min Rain = 0
KDO1 210726Z 06001KT M01/M04 A2999 RMK A01 T10071041  RH  078%=      5-min Rain = 0
KDO1 210727Z 06001KT M01/M04 A2999 RMK A01 T10071041  RH  078%=      5-min Rain = 0
KDO1 210728Z 06001KT M01/M04 A2999 RMK A01 T10081041  RH  078%=      5-min Rain = 0
KDO1 210729Z 07001KT M01/M04 A2999 RMK A01 T10081041  RH  079%=      5-min Rain = 0
KDO1 210730Z 09001KT M01/M04 A2999 RMK A01 T10081041  RH  079%=      5-min Rain = 0
KDO1 210731Z 09000KT M01/M04 A2999 RMK A01 T10091041  RH  079%=      5-min Rain = 0
KDO1 210732Z 00000KT M01/M04 A2999 RMK A01 T10091041  RH  079%=      5-min Rain = 0
KDO1 210733Z 00000KT M01/M04 A2999 RMK A01 T10091041  RH  079%=      5-min Rain = 0
KDO1 210734Z 00000KT M01/M04 A2999 RMK A01 T10091041  RH  079%=      5-min Rain = 0
KDO1 210735Z 00000KT M01/M04 A2999 RMK A01 T10101041  RH  080%=      5-min Rain = 0
KDO1 210736Z 06000KT M01/M04 A2999 RMK A01 T10101041  RH  080%=      5-min Rain = 0
KDO1 210737Z 07001KT M01/M04 A2999 RMK A01 T10101041  RH  080%=      5-min Rain = 0
KDO1 210738Z 07001KT M01/M04 A2999 RMK A01 T10101041  RH  080%=      5-min Rain = 0
KDO1 210739Z 08001KT M01/M04 A2999 RMK A01 T10101041  RH  080%=      5-min Rain = 0
KDO1 210740Z 07001KT M01/M04 A2999 RMK A01 T10101041  RH  080%=      5-min Rain = 0
KDO1 210741Z 07000KT M01/M04 A2999 RMK A01 T10101041  RH  080%=      5-min Rain = 0
KDO1 210742Z 00000KT M01/M04 A2999 RMK A01 T10101041  RH  080%=      5-min Rain = 0
KDO1 210743Z 06000KT M01/M04 A2998 RMK A01 T10101041  RH  080%=      5-min Rain = 0
KDO1 210744Z 05001KT M01/M04 A2998 RMK A01 T10111040  RH  080%=      5-min Rain = 0
KDO1 210745Z 06000KT M01/M04 A2998 RMK A01 T10111041  RH  081%=      5-min Rain = 0
KDO1 210746Z 06001KT M01/M04 A2998 RMK A01 T10121041  RH  081%=      5-min Rain = 0
KDO1 210747Z 07001KT M01/M04 A2998 RMK A01 T10121040  RH  081%=      5-min Rain = 0
KDO1 210748Z 06000KT M01/M04 A2998 RMK A01 T10131040  RH  082%=      5-min Rain = 0
KDO1 210749Z 06001KT M01/M04 A2998 RMK A01 T10131041  RH  082%=      5-min Rain = 0
KDO1 210750Z 04001KT M01/M04 A2998 RMK A01 T10131040  RH  082%=      5-min Rain = 0
KDO1 210751Z 05001KT M01/M04 A2998 RMK A01 T10131041  RH  082%=      5-min Rain = 0
KDO1 210752Z 05001KT M01/M04 A2998 RMK A01 T10131041  RH  082%=      5-min Rain = 0
KDO1 210753Z 04001KT M01/M04 A2998 RMK A01 T10131040  RH  082%=      5-min Rain = 0
KDO1 210754Z 05001KT M01/M04 A2998 RMK A01 T10131041  RH  082%=      5-min Rain = 0
KDO1 210755Z 05001KT M01/M04 A2998 RMK A01 T10131040  RH  082%=      5-min Rain = 0
KDO1 210756Z 06001KT M01/M04 A2998 RMK A01 T10131040  RH  082%=      5-min Rain = 0
KDO1 210757Z 05001KT M01/M04 A2998 RMK A01 T10141041  RH  082%=      5-min Rain = 0
KDO1 210758Z 05001KT M01/M04 A2998 RMK A01 T10141040  RH  082%=      5-min Rain = 0
KDO1 210759Z 05001KT M01/M04 A2998 RMK A01 T10141040  RH  082%=      5-min Rain = 0
KDO1 210800Z 06001KT M02/M04 A2998 RMK A01 T10151040  RH  083%=      5-min Rain = 0
KDO1 210801Z 07001KT M02/M04 A2998 RMK A01 T10151041  RH  083%=      5-min Rain = 0
KDO1 210802Z 07000KT M02/M04 A2998 RMK A01 T10151040  RH  083%=      5-min Rain = 0
KDO1 210803Z 07001KT M02/M04 A2998 RMK A01 T10161041  RH  083%=      5-min Rain = 0
KDO1 210804Z 08000KT M02/M04 A2998 RMK A01 T10161041  RH  083%=      5-min Rain = 0
KDO1 210805Z 08000KT M02/M04 A2998 RMK A01 T10161041  RH  083%=      5-min Rain = 0
KDO1 210806Z 06000KT M02/M04 A2998 RMK A01 T10161041  RH  083%=      5-min Rain = 0
KDO1 210807Z 05001KT M02/M04 A2998 RMK A01 T10161041  RH  083%=      5-min Rain = 0
KDO1 210808Z 05001KT M02/M04 A2998 RMK A01 T10161041  RH  083%=      5-min Rain = 0
KDO1 210809Z 07001KT M02/M04 A2998 RMK A01 T10171041  RH  084%=      5-min Rain = 0
KDO1 210810Z 07001KT M02/M04 A2998 RMK A01 T10171041  RH  084%=      5-min Rain = 0
KDO1 210811Z 08001KT M02/M04 A2997 RMK A01 T10171041  RH  084%=      5-min Rain = 0
KDO1 210812Z 08001KT M02/M04 A2997 RMK A01 T10161041  RH  083%=      5-min Rain = 0
KDO1 210813Z 08001KT M02/M04 A2997 RMK A01 T10151040  RH  083%=      5-min Rain = 0
KDO1 210814Z 08001KT M02/M04 A2997 RMK A01 T10151040  RH  083%=      5-min Rain = 0
KDO1 210815Z 09001KT M01/M04 A2997 RMK A01 T10141040  RH  082%=      5-min Rain = 0
KDO1 210816Z 08000KT M01/M04 A2997 RMK A01 T10131040  RH  082%=      5-min Rain = 0
KDO1 210817Z 08001KT M01/M04 A2997 RMK A01 T10131040  RH  082%=      5-min Rain = 0
KDO1 210818Z 07000KT M01/M04 A2997 RMK A01 T10131040  RH  082%=      5-min Rain = 0
KDO1 210819Z 00000KT M01/M04 A2997 RMK A01 T10131040  RH  082%=      5-min Rain = 0
KDO1 210820Z 00000KT M01/M04 A2997 RMK A01 T10141040  RH  082%=      5-min Rain = 0
KDO1 210821Z 00000KT M01/M04 A2997 RMK A01 T10141041  RH  082%=      5-min Rain = 0
KDO1 210822Z 00000KT M02/M04 A2997 RMK A01 T10151040  RH  083%=      5-min Rain = 0
KDO1 210823Z 00000KT M02/M04 A2997 RMK A01 T10151040  RH  083%=      5-min Rain = 0
KDO1 210824Z 00000KT M02/M04 A2997 RMK A01 T10151040  RH  083%=      5-min Rain = 0
KDO1 210825Z 13000KT M02/M04 A2997 RMK A01 T10151041  RH  083%=      5-min Rain = 0
KDO1 210826Z 14001KT M01/M04 A2997 RMK A01 T10141040  RH  082%=      5-min Rain = 0
KDO1 210827Z 13002KT M01/M04 A2997 RMK A01 T10141040  RH  082%=      5-min Rain = 0
KDO1 210828Z 14001KT M01/M04 A2997 RMK A01 T10141040  RH  082%=      5-min Rain = 0
KDO1 210829Z 14002KT M01/M04 A2997 RMK A01 T10141040  RH  083%=      5-min Rain = 0
KDO1 210830Z 13002KT M01/M04 A2997 RMK A01 T10141039  RH  083%=      5-min Rain = 0
KDO1 210831Z 13002KT M01/M04 A2996 RMK A01 T10131038  RH  083%=      5-min Rain = 0
KDO1 210832Z 13002KT M01/M04 A2996 RMK A01 T10121038  RH  082%=      5-min Rain = 0
KDO1 210833Z 13002KT M01/M04 A2996 RMK A01 T10111038  RH  082%=      5-min Rain = 0
KDO1 210834Z 13002KT M01/M04 A2996 RMK A01 T10101038  RH  082%=      5-min Rain = 0
KDO1 210835Z 13002KT M01/M04 A2996 RMK A01 T10101038  RH  081%=      5-min Rain = 0
KDO1 210836Z 13002KT M01/M04 A2996 RMK A01 T10101038  RH  081%=      5-min Rain = 0
KDO1 210837Z 13002KT M01/M04 A2996 RMK A01 T10101038  RH  081%=      5-min Rain = 0
KDO1 210838Z 12002KT M01/M04 A2996 RMK A01 T10101038  RH  081%=      5-min Rain = 0
KDO1 210839Z 13002KT M01/M04 A2996 RMK A01 T10101038  RH  081%=      5-min Rain = 0
KDO1 210840Z 13001KT M01/M04 A2996 RMK A01 T10101038  RH  081%=      5-min Rain = 0
KDO1 210841Z 12001KT M01/M04 A2996 RMK A01 T10101038  RH  081%=      5-min Rain = 0
KDO1 210842Z 12001KT M01/M04 A2996 RMK A01 T10101038  RH  081%=      5-min Rain = 0
KDO1 210843Z 13001KT M01/M04 A2996 RMK A01 T10101038  RH  081%=      5-min Rain = 0
KDO1 210844Z 13001KT M01/M04 A2996 RMK A01 T10101038  RH  081%=      5-min Rain = 0
KDO1 210845Z 12000KT M01/M04 A2996 RMK A01 T10101038  RH  082%=      5-min Rain = 0
KDO1 210846Z 00000KT M01/M04 A2997 RMK A01 T10101038  RH  082%=      5-min Rain = 0
KDO1 210847Z 00000KT M01/M04 A2997 RMK A01 T10111038  RH  082%=      5-min Rain = 0
KDO1 210848Z 00000KT M01/M04 A2997 RMK A01 T10121039  RH  082%=      5-min Rain = 0
KDO1 210849Z 10000KT M01/M04 A2997 RMK A01 T10131038  RH  083%=      5-min Rain = 0
KDO1 210850Z 11001KT M01/M04 A2997 RMK A01 T10131038  RH  083%=      5-min Rain = 0
KDO1 210851Z 12001KT M01/M04 A2997 RMK A01 T10131038  RH  083%=      5-min Rain = 0
KDO1 210852Z 11001KT M01/M04 A2996 RMK A01 T10121038  RH  083%=      5-min Rain = 0
KDO1 210853Z 10001KT M01/M04 A2996 RMK A01 T10121037  RH  083%=      5-min Rain = 0
KDO1 210854Z 12001KT M01/M04 A2996 RMK A01 T10111037  RH  083%=      5-min Rain = 0
KDO1 210855Z 12002KT M01/M04 A2996 RMK A01 T10111037  RH  082%=      5-min Rain = 0
KDO1 210856Z 12002KT M01/M04 A2996 RMK A01 T10111037  RH  082%=      5-min Rain = 0
KDO1 210857Z 13002KT M01/M04 A2996 RMK A01 T10101037  RH  082%=      5-min Rain = 0
KDO1 210858Z 13004KT M01/M04 A2996 RMK A01 T10091036  RH  082%=      5-min Rain = 0
KDO1 210859Z 14003KT M01/M04 A2996 RMK A01 T10091035  RH  082%=      5-min Rain = 0
KDO1 210900Z 13003KT M01/M04 A2995 RMK A01 T10081035  RH  082%=      5-min Rain = 0
KDO1 210901Z 13002KT M01/M04 A2995 RMK A01 T10081035  RH  082%=      5-min Rain = 0
KDO1 210902Z 13003KT M01/M04 A2995 RMK A01 T10071035  RH  082%=      5-min Rain = 0
KDO1 210903Z 13003KT M01/M04 A2995 RMK A01 T10091037  RH  082%=      5-min Rain = 0
KDO1 210904Z 13002KT M01/M04 A2995 RMK A01 T10111038  RH  082%=      5-min Rain = 0
KDO1 210905Z 13002KT M01/M04 A2995 RMK A01 T10131039  RH  083%=      5-min Rain = 0
KDO1 210906Z 13002KT M02/M04 A2995 RMK A01 T10151040  RH  083%=      5-min Rain = 0
KDO1 210907Z 13003KT M02/M04 A2995 RMK A01 T10161040  RH  084%=      5-min Rain = 0
KDO1 210908Z 13003KT M02/M04 A2995 RMK A01 T10171040  RH  085%=      5-min Rain = 0
KDO1 210909Z 12003KT M02/M04 A2995 RMK A01 T10171039  RH  085%=      5-min Rain = 0
KDO1 210910Z 13003KT M02/M04 A2995 RMK A01 T10171039  RH  085%=      5-min Rain = 0
KDO1 210911Z 12003KT M02/M04 A2995 RMK A01 T10171039  RH  085%=      5-min Rain = 0
KDO1 210912Z 12003KT M02/M04 A2995 RMK A01 T10171039  RH  085%=      5-min Rain = 0
KDO1 210913Z 13003KT M02/M04 A2995 RMK A01 T10171039  RH  085%=      5-min Rain = 0
KDO1 210914Z 13002KT M02/M04 A2995 RMK A01 T10171040  RH  085%=      5-min Rain = 0
KDO1 210915Z 13002KT M02/M04 A2995 RMK A01 T10171039  RH  085%=      5-min Rain = 0
KDO1 210916Z 13003KT M02/M04 A2995 RMK A01 T10171039  RH  085%=      5-min Rain = 0
KDO1 210917Z 13002KT M02/M04 A2995 RMK A01 T10171039  RH  085%=      5-min Rain = 0
KDO1 210918Z 13002KT M02/M04 A2995 RMK A01 T10171039  RH  085%=      5-min Rain = 0
KDO1 210919Z 13002KT M02/M04 A2995 RMK A01 T10171039  RH  085%=      5-min Rain = 0
KDO1 210920Z 13002KT M02/M04 A2995 RMK A01 T10161038  RH  085%=      5-min Rain = 0
KDO1 210921Z 12001KT M02/M04 A2995 RMK A01 T10151037  RH  085%=      5-min Rain = 0
KDO1 210922Z 13001KT M02/M04 A2995 RMK A01 T10151037  RH  085%=      5-min Rain = 0
KDO1 210923Z 13001KT M01/M04 A2995 RMK A01 T10141037  RH  084%=      5-min Rain = 0
KDO1 210924Z 12001KT M01/M04 A2995 RMK A01 T10141037  RH  084%=      5-min Rain = 0
KDO1 210925Z 11001KT M01/M04 A2995 RMK A01 T10141037  RH  085%=      5-min Rain = 0
KDO1 210926Z 11001KT M01/M04 A2995 RMK A01 T10141037  RH  085%=      5-min Rain = 0
KDO1 210927Z 10001KT M01/M04 A2995 RMK A01 T10141037  RH  085%=      5-min Rain = 0
KDO1 210928Z 00000KT M01/M04 A2995 RMK A01 T10141037  RH  084%=      5-min Rain = 0
KDO1 210929Z 00000KT M01/M04 A2995 RMK A01 T10141037  RH  084%=      5-min Rain = 0
KDO1 210930Z 13000KT M01/M04 A2995 RMK A01 T10141037  RH  084%=      5-min Rain = 0
KDO1 210931Z 11000KT M01/M04 A2995 RMK A01 T10141037  RH  084%=      5-min Rain = 0
KDO1 210932Z 11000KT M01/M04 A2995 RMK A01 T10131036  RH  084%=      5-min Rain = 0
KDO1 210933Z 00000KT M01/M04 A2995 RMK A01 T10131036  RH  084%=      5-min Rain = 0
KDO1 210934Z 00000KT M01/M04 A2995 RMK A01 T10131037  RH  084%=      5-min Rain = 0
KDO1 210935Z 13001KT M01/M04 A2995 RMK A01 T10131036  RH  084%=      5-min Rain = 0
KDO1 210936Z 13000KT M01/M04 A2995 RMK A01 T10141037  RH  084%=      5-min Rain = 0
KDO1 210937Z 12001KT M01/M04 A2995 RMK A01 T10141036  RH  085%=      5-min Rain = 0
KDO1 210938Z 11000KT M01/M04 A2994 RMK A01 T10141036  RH  085%=      5-min Rain = 0
KDO1 210939Z 14001KT M01/M04 A2994 RMK A01 T10141036  RH  085%=      5-min Rain = 0
KDO1 210940Z 14001KT M01/M04 A2994 RMK A01 T10141036  RH  085%=      5-min Rain = 0
KDO1 210941Z 15002KT M01/M04 A2994 RMK A01 T10131035  RH  085%=      5-min Rain = 0
KDO1 210942Z 15002KT M01/M04 A2994 RMK A01 T10131035  RH  085%=      5-min Rain = 0
KDO1 210943Z 16002KT M01/M04 A2994 RMK A01 T10131035  RH  085%=      5-min Rain = 0
KDO1 210944Z 16002KT M01/M04 A2994 RMK A01 T10121035  RH  085%=      5-min Rain = 0
KDO1 210945Z 17002KT M01/M03 A2994 RMK A01 T10121034  RH  085%=      5-min Rain = 0
KDO1 210946Z 17002KT M01/M04 A2994 RMK A01 T10121035  RH  084%=      5-min Rain = 0
KDO1 210947Z 17003KT M01/M03 A2994 RMK A01 T10111034  RH  084%=      5-min Rain = 0
KDO1 210948Z 18002KT M01/M04 A2994 RMK A01 T10111035  RH  084%=      5-min Rain = 0
KDO1 210949Z 18002KT M01/M04 A2994 RMK A01 T10111035  RH  084%=      5-min Rain = 0
KDO1 210950Z 18003KT M01/M04 A2994 RMK A01 T10111035  RH  084%=      5-min Rain = 0
KDO1 210951Z 18002KT M01/M03 A2994 RMK A01 T10111034  RH  084%=      5-min Rain = 0
KDO1 210952Z 18002KT M01/M04 A2994 RMK A01 T10111035  RH  084%=      5-min Rain = 0
KDO1 210953Z 17002KT M01/M04 A2994 RMK A01 T10121035  RH  084%=      5-min Rain = 0
KDO1 210954Z 17002KT M01/M04 A2994 RMK A01 T10121035  RH  084%=      5-min Rain = 0
KDO1 210955Z 17002KT M01/M04 A2994 RMK A01 T10121035  RH  084%=      5-min Rain = 0
KDO1 210956Z 17003KT M01/M04 A2994 RMK A01 T10121035  RH  085%=      5-min Rain = 0
KDO1 210957Z 17003KT M01/M04 A2994 RMK A01 T10121035  RH  085%=      5-min Rain = 0
KDO1 210958Z 17002KT M01/M04 A2994 RMK A01 T10121035  RH  085%=      5-min Rain = 0
KDO1 210959Z 17003KT M01/M04 A2994 RMK A01 T10131035  RH  085%=      5-min Rain = 0
KDO1 211000Z 17002KT M01/M04 A2994 RMK A01 T10121035  RH  085%=      5-min Rain = 0
KDO1 211001Z 17002KT M01/M04 A2994 RMK A01 T10121035  RH  085%=      5-min Rain = 0
KDO1 211002Z 17002KT M01/M04 A2993 RMK A01 T10131035  RH  085%=      5-min Rain = 0
KDO1 211003Z 16002KT M01/M04 A2993 RMK A01 T10121035  RH  085%=      5-min Rain = 0
KDO1 211004Z 16002KT M01/M04 A2993 RMK A01 T10131035  RH  085%=      5-min Rain = 0
KDO1 211005Z 16002KT M01/M04 A2993 RMK A01 T10121035  RH  085%=      5-min Rain = 0
KDO1 211006Z 15002KT M01/M04 A2993 RMK A01 T10121035  RH  085%=      5-min Rain = 0
KDO1 211007Z 15002KT M01/M03 A2993 RMK A01 T10121034  RH  085%=      5-min Rain = 0
KDO1 211008Z 15002KT M01/M03 A2993 RMK A01 T10121034  RH  085%=      5-min Rain = 0
KDO1 211009Z 15002KT M01/M03 A2993 RMK A01 T10121034  RH  085%=      5-min Rain = 0
KDO1 211010Z 15002KT M01/M03 A2993 RMK A01 T10121034  RH  085%=      5-min Rain = 0
KDO1 211011Z 15002KT M01/M03 A2993 RMK A01 T10121034  RH  085%=      5-min Rain = 0
KDO1 211012Z 15002KT M01/M03 A2993 RMK A01 T10121034  RH  085%=      5-min Rain = 0
KDO1 211013Z 15002KT M01/M03 A2993 RMK A01 T10121034  RH  085%=      5-min Rain = 0
KDO1 211014Z 15003KT M01/M03 A2993 RMK A01 T10121034  RH  085%=      5-min Rain = 0
KDO1 211015Z 15003KT M01/M03 A2993 RMK A01 T10121034  RH  085%=      5-min Rain = 0
KDO1 211016Z 16003KT M01/M03 A2992 RMK A01 T10121034  RH  085%=      5-min Rain = 0
KDO1 211017Z 16003KT M01/M03 A2992 RMK A01 T10121034  RH  085%=      5-min Rain = 0
KDO1 211018Z 16003KT M01/M03 A2992 RMK A01 T10121034  RH  085%=      5-min Rain = 0
KDO1 211019Z 16003KT M01/M03 A2992 RMK A01 T10121034  RH  085%=      5-min Rain = 0
KDO1 211020Z 16003KT M01/M03 A2992 RMK A01 T10121034  RH  085%=      5-min Rain = 0
KDO1 211021Z 16003KT M01/M03 A2992 RMK A01 T10121034  RH  085%=      5-min Rain = 0
KDO1 211022Z 16003KT M01/M03 A2992 RMK A01 T10121034  RH  085%=      5-min Rain = 0
KDO1 211023Z 16002KT M01/M04 A2992 RMK A01 T10131035  RH  085%=      5-min Rain = 0
KDO1 211024Z 16002KT M01/M04 A2992 RMK A01 T10131035  RH  085%=      5-min Rain = 0
KDO1 211025Z 16003KT M01/M04 A2992 RMK A01 T10131035  RH  085%=      5-min Rain = 0
KDO1 211026Z 16003KT M01/M04 A2992 RMK A01 T10141035  RH  085%=      5-min Rain = 0
KDO1 211027Z 16003KT M01/M04 A2992 RMK A01 T10141035  RH  086%=      5-min Rain = 0
KDO1 211028Z 16003KT M01/M04 A2992 RMK A01 T10141035  RH  086%=      5-min Rain = 0
KDO1 211029Z 16003KT M01/M04 A2992 RMK A01 T10141035  RH  086%=      5-min Rain = 0
KDO1 211030Z 16002KT M01/M04 A2992 RMK A01 T10141035  RH  086%=      5-min Rain = 0
KDO1 211031Z 16002KT M01/M04 A2992 RMK A01 T10141035  RH  086%=      5-min Rain = 0
KDO1 211032Z 15003KT M01/M03 A2992 RMK A01 T10141034  RH  086%=      5-min Rain = 0
KDO1 211033Z 15003KT M01/M03 A2992 RMK A01 T10141034  RH  086%=      5-min Rain = 0
KDO1 211034Z 15003KT M01/M03 A2992 RMK A01 T10141034  RH  086%=      5-min Rain = 0
KDO1 211035Z 15002KT M01/M03 A2991 RMK A01 T10141034  RH  086%=      5-min Rain = 0
KDO1 211036Z 14002KT M01/M04 A2991 RMK A01 T10141035  RH  086%=      5-min Rain = 0
KDO1 211037Z 14003KT M01/M04 A2991 RMK A01 T10141035  RH  086%=      5-min Rain = 0
KDO1 211038Z 15003KT M01/M04 A2991 RMK A01 T10141035  RH  086%=      5-min Rain = 0
KDO1 211039Z 15003KT M01/M03 A2991 RMK A01 T10141034  RH  086%=      5-min Rain = 0
KDO1 211040Z 14003KT M01/M03 A2991 RMK A01 T10141034  RH  086%=      5-min Rain = 0
KDO1 211041Z 14003KT M01/M03 A2991 RMK A01 T10141034  RH  086%=      5-min Rain = 0
KDO1 211042Z 14003KT M01/M03 A2991 RMK A01 T10141034  RH  086%=      5-min Rain = 0
KDO1 211043Z 14003KT M02/M04 A2991 RMK A01 T10151035  RH  086%=      5-min Rain = 0
KDO1 211044Z 13003KT M02/M04 A2991 RMK A01 T10151035  RH  086%=      5-min Rain = 0
KDO1 211045Z 13003KT M02/M04 A2991 RMK A01 T10151035  RH  086%=      5-min Rain = 0
KDO1 211046Z 14002KT M02/M04 A2991 RMK A01 T10151035  RH  086%=      5-min Rain = 0
KDO1 211047Z 14002KT M02/M04 A2991 RMK A01 T10161036  RH  086%=      5-min Rain = 0
KDO1 211048Z 14003KT M02/M04 A2991 RMK A01 T10161036  RH  086%=      5-min Rain = 0
KDO1 211049Z 14003KT M02/M04 A2991 RMK A01 T10161036  RH  087%=      5-min Rain = 0
KDO1 211050Z 14003KT M02/M04 A2991 RMK A01 T10171036  RH  087%=      5-min Rain = 0
KDO1 211051Z 14003KT M02/M04 A2991 RMK A01 T10171035  RH  087%=      5-min Rain = 0
KDO1 211052Z 14003KT M02/M04 A299 RMK A01 T10171035  RH  087%=      5-min Rain = 0
KDO1 211053Z 14002KT M02/M04 A299 RMK A01 T10171035  RH  087%=      5-min Rain = 0
KDO1 211054Z 14002KT M02/M04 A299 RMK A01 T10171035  RH  087%=      5-min Rain = 0
KDO1 211055Z 14002KT M02/M04 A299 RMK A01 T10171035  RH  087%=      5-min Rain = 0
KDO1 211056Z 14003KT M02/M04 A299 RMK A01 T10171035  RH  087%=      5-min Rain = 0
KDO1 211057Z 14003KT M02/M04 A299 RMK A01 T10171035  RH  087%=      5-min Rain = 0
KDO1 211058Z 13003KT M02/M04 A299 RMK A01 T10171035  RH  087%=      5-min Rain = 0
KDO1 211059Z 14002KT M02/M04 A299 RMK A01 T10171035  RH  087%=      5-min Rain = 0
KDO1 211100Z 14002KT M02/M04 A299 RMK A01 T10171035  RH  087%=      5-min Rain = 0
KDO1 211101Z 15002KT M02/M04 A299 RMK A01 T10171035  RH  088%=      5-min Rain = 0
KDO1 211102Z 15002KT M02/M04 A299 RMK A01 T10171035  RH  088%=      5-min Rain = 0
KDO1 211103Z 15003KT M02/M04 A299 RMK A01 T10171035  RH  088%=      5-min Rain = 0
KDO1 211104Z 15003KT M02/M04 A299 RMK A01 T10181035  RH  088%=      5-min Rain = 0
KDO1 211105Z 15003KT M02/M04 A299 RMK A01 T10181035  RH  088%=      5-min Rain = 0
KDO1 211106Z 15003KT M02/M04 A299 RMK A01 T10181035  RH  088%=      5-min Rain = 0
KDO1 211107Z 14003KT M02/M04 A299 RMK A01 T10181035  RH  088%=      5-min Rain = 0
KDO1 211108Z 14003KT M02/M04 A299 RMK A01 T10181035  RH  088%=      5-min Rain = 0
KDO1 211109Z 15003KT M02/M04 A299 RMK A01 T10171035  RH  088%=      5-min Rain = 0
KDO1 211110Z 15003KT M02/M04 A299 RMK A01 T10181035  RH  088%=      5-min Rain = 0
KDO1 211111Z 15003KT M02/M04 A299 RMK A01 T10181035  RH  088%=      5-min Rain = 0
KDO1 211112Z 15003KT M02/M04 A299 RMK A01 T10181035  RH  088%=      5-min Rain = 0
KDO1 211113Z 16003KT M02/M04 A299 RMK A01 T10191036  RH  088%=      5-min Rain = 0
KDO1 211114Z 15003KT M02/M04 A299 RMK A01 T10191036  RH  088%=      5-min Rain = 0
KDO1 211115Z 15003KT M02/M04 A299 RMK A01 T10191036  RH  088%=      5-min Rain = 0
KDO1 211116Z 15003KT M02/M04 A299 RMK A01 T10191036  RH  088%=      5-min Rain = 0
KDO1 211117Z 15003KT M02/M04 A299 RMK A01 T10201036  RH  089%=      5-min Rain = 0
KDO1 211118Z 16002KT M02/M04 A299 RMK A01 T10191035  RH  089%=      5-min Rain = 0
KDO1 211119Z 16003KT M02/M04 A299 RMK A01 T10191035  RH  089%=      5-min Rain = 0
KDO1 211120Z 16003KT M02/M04 A299 RMK A01 T10191035  RH  089%=      5-min Rain = 0
KDO1 211121Z 17003KT M02/M04 A299 RMK A01 T10191035  RH  089%=      5-min Rain = 0
KDO1 211122Z 17002KT M02/M04 A299 RMK A01 T10191035  RH  089%=      5-min Rain = 0
KDO1 211123Z 17002KT M02/M04 A299 RMK A01 T10191035  RH  089%=      5-min Rain = 0
KDO1 211124Z 17002KT M02/M04 A299 RMK A01 T10191035  RH  089%=      5-min Rain = 0
KDO1 211125Z 17002KT M02/M04 A299 RMK A01 T10191035  RH  089%=      5-min Rain = 0
KDO1 211126Z 17002KT M02/M04 A299 RMK A01 T10191035  RH  089%=      5-min Rain = 0
KDO1 211127Z 17002KT M02/M04 A299 RMK A01 T10191035  RH  089%=      5-min Rain = 0
KDO1 211128Z 17002KT M02/M04 A299 RMK A01 T10191035  RH  089%=      5-min Rain = 0
KDO1 211129Z 16003KT M02/M04 A299 RMK A01 T10191035  RH  089%=      5-min Rain = 0
KDO1 211130Z 16003KT M02/M04 A299 RMK A01 T10191035  RH  089%=      5-min Rain = 0
KDO1 211131Z 16003KT M02/M03 A299 RMK A01 T10191034  RH  089%=      5-min Rain = 0
KDO1 211132Z 16003KT M02/M03 A299 RMK A01 T10181034  RH  089%=      5-min Rain = 0
KDO1 211133Z 16003KT M02/M03 A299 RMK A01 T10181033  RH  089%=      5-min Rain = 0
KDO1 211134Z 18002KT M02/M03 A299 RMK A01 T10171033  RH  089%=      5-min Rain = 0
KDO1 211135Z 18002KT M02/M03 A299 RMK A01 T10171033  RH  089%=      5-min Rain = 0
KDO1 211136Z 18002KT M02/M03 A299 RMK A01 T10171033  RH  089%=      5-min Rain = 0
KDO1 211137Z 19002KT M02/M03 A299 RMK A01 T10181034  RH  089%=      5-min Rain = 0
KDO1 211138Z 18002KT M02/M03 A299 RMK A01 T10171033  RH  089%=      5-min Rain = 0
KDO1 211139Z 18002KT M02/M03 A299 RMK A01 T10181034  RH  089%=      5-min Rain = 0
KDO1 211140Z 18002KT M02/M03 A2989 RMK A01 T10171033  RH  089%=      5-min Rain = 0
KDO1 211141Z 17003KT M02/M03 A2989 RMK A01 T10171033  RH  089%=      5-min Rain = 0
KDO1 211142Z 17002KT M02/M03 A2989 RMK A01 T10171033  RH  089%=      5-min Rain = 0
KDO1 211143Z 16002KT M02/M03 A2989 RMK A01 T10171033  RH  089%=      5-min Rain = 0
KDO1 211144Z 17002KT M02/M03 A2989 RMK A01 T10171033  RH  089%=      5-min Rain = 0
KDO1 211145Z 16002KT M02/M03 A2989 RMK A01 T10171033  RH  089%=      5-min Rain = 0
KDO1 211146Z 16002KT M02/M03 A2989 RMK A01 T10171033  RH  089%=      5-min Rain = 0
KDO1 211147Z 16002KT M02/M03 A2989 RMK A01 T10171033  RH  089%=      5-min Rain = 0
KDO1 211148Z 16002KT M02/M03 A2989 RMK A01 T10171033  RH  089%=      5-min Rain = 0
KDO1 211149Z 16002KT M02/M03 A2989 RMK A01 T10171033  RH  089%=      5-min Rain = 0
KDO1 211150Z 16003KT M02/M03 A2989 RMK A01 T10171033  RH  088%=      5-min Rain = 0
KDO1 211151Z 15003KT M02/M03 A2989 RMK A01 T10171033  RH  088%=      5-min Rain = 0
KDO1 211152Z 15003KT M02/M03 A2989 RMK A01 T10161033  RH  088%=      5-min Rain = 0
KDO1 211153Z 15003KT M02/M03 A2989 RMK A01 T10161033  RH  089%=      5-min Rain = 0
KDO1 211154Z 15003KT M02/M03 A2989 RMK A01 T10171034  RH  089%=      5-min Rain = 0
KDO1 211155Z 15002KT M02/M03 A2989 RMK A01 T10171034  RH  089%=      5-min Rain = 0
KDO1 211156Z 16003KT M02/M03 A2989 RMK A01 T10171034  RH  089%=      5-min Rain = 0
KDO1 211157Z 17002KT M02/M03 A2989 RMK A01 T10181034  RH  089%=      5-min Rain = 0
KDO1 211158Z 17003KT M02/M03 A2989 RMK A01 T10181034  RH  089%=      5-min Rain = 0
KDO1 211159Z 17003KT M02/M03 A2989 RMK A01 T10181034  RH  089%=      5-min Rain = 0
KDO1 211200Z 17003KT M02/M03 A2989 RMK A01 T10181034  RH  089%=      5-min Rain = 0
KDO1 211201Z 17003KT M02/M03 A2989 RMK A01 T10181034  RH  089%=      5-min Rain = 0
KDO1 211202Z 18003KT M02/M03 A2989 RMK A01 T10181034  RH  089%=      5-min Rain = 0
KDO1 211203Z 17003KT M02/M03 A2989 RMK A01 T10191034  RH  089%=      5-min Rain = 0
KDO1 211204Z 17003KT M02/M03 A2989 RMK A01 T10191034  RH  089%=      5-min Rain = 0
KDO1 211205Z 18003KT M02/M03 A2989 RMK A01 T10181033  RH  090%=      5-min Rain = 0
KDO1 211206Z 17003KT M02/M03 A2989 RMK A01 T10181033  RH  090%=      5-min Rain = 0
KDO1 211207Z 17003KT M02/M03 A2989 RMK A01 T10191033  RH  090%=      5-min Rain = 0
KDO1 211208Z 17003KT M02/M03 A2989 RMK A01 T10181033  RH  090%=      5-min Rain = 0
KDO1 211209Z 17003KT M02/M03 A2989 RMK A01 T10181033  RH  090%=      5-min Rain = 0
KDO1 211210Z 18003KT M02/M03 A2989 RMK A01 T10181033  RH  090%=      5-min Rain = 0
KDO1 211211Z 18003KT M02/M03 A2989 RMK A01 T10181033  RH  090%=      5-min Rain = 0
KDO1 211212Z 18003KT M02/M03 A2989 RMK A01 T10191033  RH  090%=      5-min Rain = 0
KDO1 211213Z 19003KT M02/M03 A2989 RMK A01 T10191033  RH  090%=      5-min Rain = 0
KDO1 211214Z 18003KT M02/M03 A2989 RMK A01 T10191034  RH  090%=      5-min Rain = 0
KDO1 211215Z 19003KT M02/M03 A2989 RMK A01 T10191034  RH  090%=      5-min Rain = 0
KDO1 211216Z 19003KT M02/M03 A2989 RMK A01 T10201034  RH  090%=      5-min Rain = 0
KDO1 211217Z 20003KT M02/M03 A2989 RMK A01 T10191034  RH  090%=      5-min Rain = 0
KDO1 211218Z 20003KT M02/M03 A2989 RMK A01 T10201034  RH  090%=      5-min Rain = 0
KDO1 211219Z 20003KT M02/M03 A2989 RMK A01 T10191034  RH  090%=      5-min Rain = 0
KDO1 211220Z 20003KT M02/M03 A2989 RMK A01 T10201034  RH  090%=      5-min Rain = 0
KDO1 211221Z 20003KT M02/M03 A2989 RMK A01 T10201034  RH  090%=      5-min Rain = 0
KDO1 211222Z 19003KT M02/M03 A2989 RMK A01 T10201034  RH  090%=      5-min Rain = 0
KDO1 211223Z 20003KT M02/M03 A2989 RMK A01 T10201034  RH  090%=      5-min Rain = 0
KDO1 211224Z 20004KT M02/M03 A2989 RMK A01 T10201034  RH  090%=      5-min Rain = 0
KDO1 211225Z 20003KT M02/M04 A2989 RMK A01 T10211035  RH  090%=      5-min Rain = 0
KDO1 211226Z 20003KT M02/M04 A2989 RMK A01 T10211036  RH  090%=      5-min Rain = 0
KDO1 211227Z 20003KT M02/M04 A2989 RMK A01 T10221036  RH  090%=      5-min Rain = 0
KDO1 211228Z 20003KT M02/M04 A2989 RMK A01 T10231037  RH  090%=      5-min Rain = 0
KDO1 211229Z 20003KT M02/M04 A2989 RMK A01 T10241037  RH  091%=      5-min Rain = 0
KDO1 211230Z 20003KT M02/M04 A2989 RMK A01 T10241037  RH  091%=      5-min Rain = 0
KDO1 211231Z 19003KT M03/M04 A2989 RMK A01 T10251038  RH  091%=      5-min Rain = 0
KDO1 211232Z 19003KT M03/M04 A2989 RMK A01 T10261038  RH  092%=      5-min Rain = 0
KDO1 211233Z 19003KT M03/M04 A2989 RMK A01 T10261037  RH  092%=      5-min Rain = 0
KDO1 211234Z 19003KT M03/M04 A2989 RMK A01 T10261037  RH  092%=      5-min Rain = 0
KDO1 211235Z 18004KT M03/M04 A2989 RMK A01 T10261037  RH  092%=      5-min Rain = 0
KDO1 211236Z 19004KT M03/M04 A2989 RMK A01 T10261037  RH  093%=      5-min Rain = 0
KDO1 211237Z 18004KT M03/M04 A2989 RMK A01 T10261037  RH  093%=      5-min Rain = 0
KDO1 211238Z 19003KT M03/M04 A2989 RMK A01 T10271037  RH  093%=      5-min Rain = 0
KDO1 211239Z 18003KT M03/M04 A2989 RMK A01 T10271037  RH  093%=      5-min Rain = 0
KDO1 211240Z 18003KT M03/M04 A2989 RMK A01 T10271037  RH  093%=      5-min Rain = 0
KDO1 211241Z 18003KT M03/M04 A2989 RMK A01 T10271037  RH  093%=      5-min Rain = 0
KDO1 211242Z 18004KT M03/M04 A2989 RMK A01 T10261037  RH  093%=      5-min Rain = 0
KDO1 211243Z 18004KT M03/M04 A2989 RMK A01 T10271037  RH  093%=      5-min Rain = 0
KDO1 211244Z 18003KT M03/M04 A2989 RMK A01 T10271037  RH  092%=      5-min Rain = 0
KDO1 211245Z 18004KT M03/M04 A2989 RMK A01 T10261037  RH  092%=      5-min Rain = 0
KDO1 211246Z 17004KT M03/M04 A2989 RMK A01 T10261037  RH  092%=      5-min Rain = 0
KDO1 211247Z 17004KT M03/M04 A2988 RMK A01 T10261037  RH  092%=      5-min Rain = 0
KDO1 211248Z 17004KT M03/M04 A2988 RMK A01 T10261037  RH  092%=      5-min Rain = 0
KDO1 211249Z 16004KT M03/M04 A2988 RMK A01 T10261037  RH  092%=      5-min Rain = 0
KDO1 211250Z 16004KT M03/M04 A2988 RMK A01 T10261037  RH  092%=      5-min Rain = 0
KDO1 211251Z 16003KT M03/M04 A2988 RMK A01 T10261037  RH  092%=      5-min Rain = 0
KDO1 211252Z 16003KT M03/M04 A2988 RMK A01 T10261037  RH  093%=      5-min Rain = 0
KDO1 211253Z 16003KT M03/M04 A2988 RMK A01 T10261037  RH  093%=      5-min Rain = 0
KDO1 211254Z 16002KT M03/M04 A2988 RMK A01 T10261037  RH  093%=      5-min Rain = 0
KDO1 211255Z 15003KT M03/M04 A2988 RMK A01 T10271037  RH  093%=      5-min Rain = 0
KDO1 211256Z 14003KT M03/M04 A2988 RMK A01 T10271037  RH  093%=      5-min Rain = 0
KDO1 211257Z 14003KT M03/M04 A2988 RMK A01 T10271037  RH  093%=      5-min Rain = 0
KDO1 211258Z 14002KT M03/M04 A2988 RMK A01 T10271037  RH  093%=      5-min Rain = 0
KDO1 211259Z 13002KT M03/M04 A2988 RMK A01 T10271037  RH  093%=      5-min Rain = 0
KDO1 211300Z 14002KT M03/M04 A2988 RMK A01 T10271037  RH  093%=      5-min Rain = 0
KDO1 211301Z 14002KT M03/M04 A2988 RMK A01 T10271036  RH  093%=      5-min Rain = 0
KDO1 211302Z 14002KT M03/M04 A2988 RMK A01 T10271037  RH  093%=      5-min Rain = 0
KDO1 211303Z 14002KT M03/M04 A2988 RMK A01 T10271037  RH  093%=      5-min Rain = 0
KDO1 211304Z 14002KT M03/M04 A2987 RMK A01 T10281037  RH  093%=      5-min Rain = 0
KDO1 211305Z 14002KT M03/M04 A2987 RMK A01 T10281038  RH  093%=      5-min Rain = 0
KDO1 211306Z 14002KT M03/M04 A2987 RMK A01 T10281038  RH  093%=      5-min Rain = 0
KDO1 211307Z 13003KT M03/M04 A2987 RMK A01 T10281038  RH  093%=      5-min Rain = 0
KDO1 211308Z 14003KT M03/M04 A2987 RMK A01 T10291038  RH  093%=      5-min Rain = 0
KDO1 211309Z 13003KT M03/M04 A2987 RMK A01 T10281037  RH  094%=      5-min Rain = 0
KDO1 211310Z 14003KT M03/M04 A2987 RMK A01 T10281036  RH  094%=      5-min Rain = 0
KDO1 211311Z 14003KT M03/M04 A2987 RMK A01 T10281036  RH  094%=      5-min Rain = 0
KDO1 211312Z 13003KT M03/M04 A2987 RMK A01 T10271036  RH  094%=      5-min Rain = 0
KDO1 211313Z 13003KT M03/M04 A2987 RMK A01 T10281036  RH  094%=      5-min Rain = 0
KDO1 211314Z 13003KT M03/M04 A2987 RMK A01 T10281036  RH  094%=      5-min Rain = 0
KDO1 211315Z 13003KT M03/M04 A2987 RMK A01 T10281036  RH  094%=      5-min Rain = 0
KDO1 211316Z 14003KT M03/M04 A2987 RMK A01 T10281036  RH  094%=      5-min Rain = 0
KDO1 211317Z 13003KT M03/M04 A2987 RMK A01 T10281036  RH  094%=      5-min Rain = 0
KDO1 211318Z 12003KT M03/M04 A2987 RMK A01 T10281036  RH  094%=      5-min Rain = 0
KDO1 211319Z 13003KT M03/M04 A2987 RMK A01 T10271036  RH  094%=      5-min Rain = 0
KDO1 211320Z 12003KT M03/M04 A2987 RMK A01 T10271036  RH  094%=      5-min Rain = 0
KDO1 211321Z 12003KT M03/M04 A2987 RMK A01 T10271036  RH  094%=      5-min Rain = 0
KDO1 211322Z 12003KT M03/M04 A2987 RMK A01 T10281036  RH  094%=      5-min Rain = 0
KDO1 211323Z 12003KT M03/M04 A2987 RMK A01 T10281036  RH  094%=      5-min Rain = 0
KDO1 211324Z 12003KT M03/M04 A2987 RMK A01 T10281036  RH  094%=      5-min Rain = 0
KDO1 211325Z 12003KT M03/M04 A2987 RMK A01 T10281035  RH  095%=      5-min Rain = 0
KDO1 211326Z 13003KT M03/M04 A2987 RMK A01 T10281035  RH  095%=      5-min Rain = 0
KDO1 211327Z 12003KT M03/M03 A2987 RMK A01 T10271034  RH  096%=      5-min Rain = 0
KDO1 211328Z 12003KT M03/M03 A2987 RMK A01 T10271033  RH  096%=      5-min Rain = 0
KDO1 211329Z 12002KT M03/M03 A2987 RMK A01 T10261032  RH  096%=      5-min Rain = 0
KDO1 211330Z 13002KT M03/M03 A2987 RMK A01 T10261032  RH  096%=      5-min Rain = 0
KDO1 211331Z 13002KT M03/M03 A2987 RMK A01 T10261032  RH  096%=      5-min Rain = 0
KDO1 211332Z 15002KT M03/M03 A2987 RMK A01 T10261032  RH  096%=      5-min Rain = 0
KDO1 211333Z 12002KT M03/M03 A2987 RMK A01 T10251031  RH  096%=      5-min Rain = 0
KDO1 211334Z 12003KT M03/M03 A2987 RMK A01 T10251031  RH  096%=      5-min Rain = 0
KDO1 211335Z 12003KT M02/M03 A2987 RMK A01 T10241030  RH  096%=      5-min Rain = 0
KDO1 211336Z 14003KT M02/M03 A2987 RMK A01 T10241030  RH  096%=      5-min Rain = 0
KDO1 211337Z 13002KT M02/M03 A2987 RMK A01 T10241030  RH  096%=      5-min Rain = 0
KDO1 211338Z 12003KT M02/M03 A2987 RMK A01 T10241030  RH  096%=      5-min Rain = 0
KDO1 211339Z 13003KT M02/M03 A2987 RMK A01 T10241030  RH  095%=      5-min Rain = 0
KDO1 211340Z 13003KT M02/M03 A2987 RMK A01 T10241030  RH  096%=      5-min Rain = 0
KDO1 211341Z 14003KT M02/M03 A2987 RMK A01 T10241030  RH  096%=      5-min Rain = 0
KDO1 211342Z 15003KT M02/M03 A2987 RMK A01 T10241030  RH  096%=      5-min Rain = 0
KDO1 211343Z 15003KT M02/M03 A2987 RMK A01 T10241030  RH  096%=      5-min Rain = 0
KDO1 211344Z 15003KT M02/M03 A2987 RMK A01 T10241030  RH  096%=      5-min Rain = 0
KDO1 211345Z 15003KT M02/M03 A2987 RMK A01 T10241030  RH  096%=      5-min Rain = 0
KDO1 211346Z 16003KT M02/M03 A2987 RMK A01 T10241030  RH  096%=      5-min Rain = 0
KDO1 211347Z 16003KT M02/M03 A2987 RMK A01 T10241030  RH  096%=      5-min Rain = 0
KDO1 211348Z 17003KT M03/M03 A2987 RMK A01 T10251030  RH  096%=      5-min Rain = 0
KDO1 211349Z 16003KT M03/M03 A2987 RMK A01 T10251030  RH  096%=      5-min Rain = 0
KDO1 211350Z 17004KT M03/M03 A2987 RMK A01 T10251030  RH  096%=      5-min Rain = 0
KDO1 211351Z 16004KT M03/M03 A2987 RMK A01 T10261031  RH  096%=      5-min Rain = 0
KDO1 211352Z 16004KT M03/M03 A2987 RMK A01 T10261031  RH  096%=      5-min Rain = 0
KDO1 211353Z 17004KT M03/M03 A2987 RMK A01 T10261031  RH  096%=      5-min Rain = 0
KDO1 211354Z 17004KT M03/M03 A2987 RMK A01 T10271032  RH  096%=      5-min Rain = 0
KDO1 211355Z 17004KT M03/M03 A2987 RMK A01 T10271032  RH  096%=      5-min Rain = 0
KDO1 211356Z 17004KT M03/M03 A2987 RMK A01 T10271032  RH  097%=      5-min Rain = 0
KDO1 211357Z 18004KT M03/M03 A2987 RMK A01 T10271032  RH  097%=      5-min Rain = 0
KDO1 211358Z 19003KT M03/M03 A2987 RMK A01 T10281032  RH  097%=      5-min Rain = 0
KDO1 211359Z 19003KT M03/M03 A2987 RMK A01 T10281032  RH  097%=      5-min Rain = 0
KDO1 211400Z 20002KT M03/M03 A2987 RMK A01 T10281032  RH  097%=      5-min Rain = 0
KDO1 211401Z 21002KT M03/M03 A2987 RMK A01 T10281032  RH  097%=      5-min Rain = 0
KDO1 211402Z 21002KT M03/M03 A2987 RMK A01 T10281032  RH  097%=      5-min Rain = 0
KDO1 211403Z 21002KT M03/M03 A2987 RMK A01 T10291033  RH  097%=      5-min Rain = 0
KDO1 211404Z 20002KT M03/M03 A2987 RMK A01 T10291032  RH  097%=      5-min Rain = 0
KDO1 211405Z 21002KT M03/M03 A2987 RMK A01 T10281032  RH  097%=      5-min Rain = 0
KDO1 211406Z 21002KT M03/M03 A2987 RMK A01 T10291032  RH  097%=      5-min Rain = 0
KDO1 211407Z 20001KT M03/M03 A2987 RMK A01 T10291032  RH  097%=      5-min Rain = 0
KDO1 211408Z 20001KT M03/M03 A2987 RMK A01 T10291033  RH  098%=      5-min Rain = 0
KDO1 211409Z 21001KT M03/M03 A2987 RMK A01 T10291032  RH  098%=      5-min Rain = 0
KDO1 211410Z 19001KT M03/M03 A2987 RMK A01 T10291032  RH  098%=      5-min Rain = 0
KDO1 211411Z 19001KT M03/M03 A2987 RMK A01 T10291032  RH  098%=      5-min Rain = 0
KDO1 211412Z 19001KT M03/M03 A2987 RMK A01 T10291032  RH  098%=      5-min Rain = 0
KDO1 211413Z 20001KT M03/M03 A2987 RMK A01 T10281032  RH  098%=      5-min Rain = 0
KDO1 211414Z 22001KT M03/M03 A2987 RMK A01 T10281031  RH  098%=      5-min Rain = 0
KDO1 211415Z 24001KT M03/M03 A2986 RMK A01 T10281031  RH  098%=      5-min Rain = 0
KDO1 211416Z 25000KT M03/M03 A2987 RMK A01 T10271031  RH  097%=      5-min Rain = 0
KDO1 211417Z 27000KT M03/M03 A2986 RMK A01 T10271031  RH  097%=      5-min Rain = 0
KDO1 211418Z 25001KT M03/M03 A2986 RMK A01 T10251030  RH  097%=      5-min Rain = 0
KDO1 211419Z 24000KT M03/M03 A2986 RMK A01 T10251029  RH  097%=      5-min Rain = 0
KDO1 211420Z 23001KT M02/M03 A2986 RMK A01 T10241029  RH  097%=      5-min Rain = 0
KDO1 211421Z 22001KT M02/M03 A2986 RMK A01 T10241028  RH  097%=      5-min Rain = 0
KDO1 211422Z 24001KT M02/M03 A2986 RMK A01 T10241028  RH  097%=      5-min Rain = 0
KDO1 211423Z 23001KT M02/M03 A2986 RMK A01 T10241028  RH  097%=      5-min Rain = 0
KDO1 211424Z 23001KT M02/M03 A2986 RMK A01 T10231028  RH  096%=      5-min Rain = 0
KDO1 211425Z 23001KT M02/M03 A2986 RMK A01 T10231028  RH  096%=      5-min Rain = 0
KDO1 211426Z 22001KT M02/M03 A2986 RMK A01 T10221027  RH  096%=      5-min Rain = 0
KDO1 211427Z 22002KT M02/M03 A2986 RMK A01 T10221027  RH  096%=      5-min Rain = 0
KDO1 211428Z 24001KT M02/M03 A2986 RMK A01 T10221028  RH  096%=      5-min Rain = 0
KDO1 211429Z 24001KT M02/M03 A2986 RMK A01 T10221027  RH  096%=      5-min Rain = 0
KDO1 211430Z 22001KT M02/M03 A2986 RMK A01 T10221027  RH  096%=      5-min Rain = 0
KDO1 211431Z 20002KT M02/M03 A2986 RMK A01 T10211027  RH  096%=      5-min Rain = 0
KDO1 211432Z 19002KT M02/M03 A2986 RMK A01 T10211027  RH  096%=      5-min Rain = 0
KDO1 211433Z 19001KT M02/M03 A2986 RMK A01 T10201027  RH  095%=      5-min Rain = 0
KDO1 211434Z 20001KT M02/M03 A2986 RMK A01 T10201027  RH  095%=      5-min Rain = 0
KDO1 211435Z 19002KT M02/M03 A2986 RMK A01 T10201026  RH  095%=      5-min Rain = 0
KDO1 211436Z 17003KT M02/M03 A2985 RMK A01 T10201026  RH  095%=      5-min Rain = 0
KDO1 211437Z 17003KT M02/M03 A2985 RMK A01 T10191026  RH  095%=      5-min Rain = 0
KDO1 211438Z 16002KT M02/M03 A2985 RMK A01 T10191025  RH  095%=      5-min Rain = 0
KDO1 211439Z 16002KT M02/M03 A2985 RMK A01 T10181025  RH  095%=      5-min Rain = 0
KDO1 211440Z 17003KT M02/M03 A2985 RMK A01 T10181025  RH  095%=      5-min Rain = 0
KDO1 211441Z 17003KT M02/M03 A2985 RMK A01 T10181025  RH  095%=      5-min Rain = 0
KDO1 211442Z 18003KT M02/M03 A2985 RMK A01 T10181025  RH  095%=      5-min Rain = 0
KDO1 211443Z 19002KT M02/M03 A2986 RMK A01 T10171025  RH  095%=      5-min Rain = 0
KDO1 211444Z 20002KT M02/M03 A2986 RMK A01 T10171025  RH  094%=      5-min Rain = 0
KDO1 211445Z 19002KT M02/M02 A2985 RMK A01 T10161024  RH  094%=      5-min Rain = 0
KDO1 211446Z 19001KT M02/M02 A2985 RMK A01 T10151024  RH  094%=      5-min Rain = 0
KDO1 211447Z 20002KT M01/M02 A2985 RMK A01 T10141023  RH  094%=      5-min Rain = 0
KDO1 211448Z 18002KT M01/M02 A2985 RMK A01 T10141023  RH  094%=      5-min Rain = 0
KDO1 211449Z 18003KT M01/M02 A2985 RMK A01 T10141024  RH  093%=      5-min Rain = 0
KDO1 211450Z 17002KT M01/M02 A2985 RMK A01 T10141024  RH  093%=      5-min Rain = 0
KDO1 211451Z 18002KT M01/M02 A2985 RMK A01 T10141024  RH  093%=      5-min Rain = 0
KDO1 211452Z 18002KT M01/M02 A2985 RMK A01 T10141024  RH  093%=      5-min Rain = 0
KDO1 211453Z 19002KT M01/M02 A2985 RMK A01 T10131023  RH  093%=      5-min Rain = 0
KDO1 211454Z 18003KT M01/M02 A2985 RMK A01 T10131023  RH  093%=      5-min Rain = 0
KDO1 211455Z 18003KT M01/M02 A2985 RMK A01 T10121022  RH  093%=      5-min Rain = 0
KDO1 211456Z 20003KT M01/M02 A2985 RMK A01 T10121022  RH  093%=      5-min Rain = 0
KDO1 211457Z 18003KT M01/M02 A2985 RMK A01 T10121022  RH  093%=      5-min Rain = 0
KDO1 211458Z 20002KT M01/M02 A2985 RMK A01 T10121022  RH  093%=      5-min Rain = 0
KDO1 211459Z 19002KT M01/M02 A2985 RMK A01 T10121021  RH  093%=      5-min Rain = 0
KDO1 211500Z 19001KT M01/M02 A2985 RMK A01 T10121021  RH  094%=      5-min Rain = 0
KDO1 211501Z 18001KT M01/M02 A2985 RMK A01 T10111020  RH  094%=      5-min Rain = 0
KDO1 211502Z 17003KT M01/M02 A2985 RMK A01 T10111020  RH  094%=      5-min Rain = 0
KDO1 211503Z 15003KT M01/M02 A2985 RMK A01 T10111020  RH  094%=      5-min Rain = 0
KDO1 211504Z 15002KT M01/M02 A2985 RMK A01 T10111020  RH  094%=      5-min Rain = 0
KDO1 211505Z 16003KT M01/M02 A2985 RMK A01 T10111020  RH  094%=      5-min Rain = 0
KDO1 211506Z 17003KT M01/M02 A2985 RMK A01 T10111020  RH  094%=      5-min Rain = 0
KDO1 211507Z 16003KT M01/M02 A2985 RMK A01 T10111019  RH  094%=      5-min Rain = 0
KDO1 211508Z 18002KT M01/M02 A2985 RMK A01 T10101020  RH  094%=      5-min Rain = 0
KDO1 211509Z 18002KT M01/M02 A2985 RMK A01 T10111020  RH  094%=      5-min Rain = 0
KDO1 211510Z 17003KT M01/M02 A2985 RMK A01 T10111019  RH  094%=      5-min Rain = 0
KDO1 211511Z 16002KT M01/M02 A2985 RMK A01 T10101019  RH  094%=      5-min Rain = 0
KDO1 211512Z 15001KT M01/M02 A2985 RMK A01 T10101019  RH  094%=      5-min Rain = 0
KDO1 211513Z 14002KT M01/M02 A2985 RMK A01 T10091018  RH  094%=      5-min Rain = 0
KDO1 211514Z 13002KT M01/M02 A2985 RMK A01 T10081017  RH  094%=      5-min Rain = 0
KDO1 211515Z 13001KT M01/M02 A2985 RMK A01 T10081017  RH  094%=      5-min Rain = 0
KDO1 211516Z 13002KT M01/M02 A2985 RMK A01 T10071017  RH  093%=      5-min Rain = 0
KDO1 211517Z 13001KT M01/M02 A2985 RMK A01 T10061016  RH  093%=      5-min Rain = 0
KDO1 211518Z 12001KT M01/M02 A2985 RMK A01 T10051016  RH  093%=      5-min Rain = 0
KDO1 211519Z 13001KT M01/M02 A2985 RMK A01 T10051016  RH  092%=      5-min Rain = 0
KDO1 211520Z 17000KT M01/M02 A2985 RMK A01 T10051016  RH  092%=      5-min Rain = 0
KDO1 211521Z 15001KT M01/M02 A2985 RMK A01 T10051017  RH  091%=      5-min Rain = 0
KDO1 211522Z 17001KT M01/M02 A2985 RMK A01 T10051017  RH  092%=      5-min Rain = 0
KDO1 211523Z 21001KT M01/M02 A2985 RMK A01 T10051017  RH  092%=      5-min Rain = 0
KDO1 211524Z 20001KT M00/M02 A2985 RMK A01 T10041016  RH  092%=      5-min Rain = 0
KDO1 211525Z 19001KT M01/M02 A2985 RMK A01 T10051016  RH  092%=      5-min Rain = 0
KDO1 211526Z 20001KT M01/M02 A2985 RMK A01 T10051016  RH  092%=      5-min Rain = 0
KDO1 211527Z 21002KT M00/M02 A2986 RMK A01 T10041016  RH  092%=      5-min Rain = 0
KDO1 211528Z 20001KT M00/M02 A2986 RMK A01 T10041016  RH  092%=      5-min Rain = 0
KDO1 211529Z 23002KT M00/M02 A2986 RMK A01 T10041015  RH  092%=      5-min Rain = 0
KDO1 211530Z 24002KT M00/M02 A2986 RMK A01 T10041015  RH  092%=      5-min Rain = 0
KDO1 211531Z 24002KT M01/M02 A2986 RMK A01 T10051016  RH  092%=      5-min Rain = 0
KDO1 211532Z 22003KT M01/M02 A2986 RMK A01 T10051015  RH  093%=      5-min Rain = 0
KDO1 211533Z 21002KT M00/M01 A2986 RMK A01 T10041014  RH  093%=      5-min Rain = 0
KDO1 211534Z 22002KT M00/M01 A2986 RMK A01 T10041014  RH  093%=      5-min Rain = 0
KDO1 211535Z 19002KT M00/M01 A2985 RMK A01 T10031014  RH  092%=      5-min Rain = 0
KDO1 211536Z 19003KT M00/M01 A2985 RMK A01 T10031014  RH  092%=      5-min Rain = 0
KDO1 211537Z 19002KT M00/M01 A2985 RMK A01 T10021013  RH  092%=      5-min Rain = 0
KDO1 211538Z 20002KT M00/M01 A2985 RMK A01 T10011012  RH  092%=      5-min Rain = 0
KDO1 211539Z 21002KT 00/01 A2985 RMK A01 T00000-10  RH  093%=      5-min Rain = 0
KDO1 211540Z 20002KT 00/M01 A2985 RMK A01 T00011010  RH  092%=      5-min Rain = 0
KDO1 211541Z 20003KT 00/M01 A2985 RMK A01 T00011011  RH  092%=      5-min Rain = 0
KDO1 211542Z 19002KT 00/M01 A2985 RMK A01 T00021010  RH  092%=      5-min Rain = 0
KDO1 211543Z 19003KT 00/M01 A2985 RMK A01 T00031009  RH  092%=      5-min Rain = 0
KDO1 211544Z 19004KT 00/M01 A2985 RMK A01 T00031009  RH  092%=      5-min Rain = 0
KDO1 211545Z 19004KT 00/M01 A2985 RMK A01 T00041009  RH  091%=      5-min Rain = 0
KDO1 211546Z 19004KT 00/M01 A2985 RMK A01 T00041009  RH  091%=      5-min Rain = 0
KDO1 211547Z 19004KT 01/M01 A2985 RMK A01 T00061006  RH  092%=      5-min Rain = 0
KDO1 211548Z 19004KT 01/M01 A2985 RMK A01 T00071006  RH  091%=      5-min Rain = 0
KDO1 211549Z 19003KT 01/M01 A2985 RMK A01 T00081005  RH  091%=      5-min Rain = 0
KDO1 211550Z 18005KT 01/M00 A2985 RMK A01 T00101004  RH  090%=      5-min Rain = 0
KDO1 211551Z 18004KT 01/M01 A2985 RMK A01 T00101006  RH  089%=      5-min Rain = 0
KDO1 211552Z 19003KT 01/M01 A2985 RMK A01 T00101005  RH  089%=      5-min Rain = 0
KDO1 211553Z 19004KT 01/M01 A2985 RMK A01 T00111005  RH  089%=      5-min Rain = 0
KDO1 211554Z 18004KT 01/M01 A2985 RMK A01 T00111006  RH  088%=      5-min Rain = 0
KDO1 211555Z 18003KT 01/M01 A2985 RMK A01 T00111005  RH  089%=      5-min Rain = 0
KDO1 211556Z 18006KT 01/M01 A2985 RMK A01 T00111005  RH  089%=      5-min Rain = 0
KDO1 211557Z 18006KT 01/M01 A2984 RMK A01 T00111006  RH  088%=      5-min Rain = 0
KDO1 211558Z 17005KT 01/M01 A2984 RMK A01 T00111006  RH  088%=      5-min Rain = 0
KDO1 211559Z 16006KT 01/M01 A2984 RMK A01 T00121005  RH  089%=      5-min Rain = 0
KDO1 211600Z 17005KT 01/M00 A2984 RMK A01 T00141003  RH  089%=      5-min Rain = 0
KDO1 211601Z 18005KT 02/M00 A2984 RMK A01 T00161001  RH  089%=      5-min Rain = 0
KDO1 211602Z 19006KT 02/00 A2984 RMK A01 T001800-0  RH  088%=      5-min Rain = 0
KDO1 211603Z 18007KT 02/M00 A2984 RMK A01 T00191001  RH  087%=      5-min Rain = 0
KDO1 211604Z 18008KT 02/M00 A2984 RMK A01 T00191001  RH  086%=      5-min Rain = 0
KDO1 211605Z 17007KT 02/00 A2984 RMK A01 T002000-0  RH  086%=      5-min Rain = 0
KDO1 211606Z 17007KT 02/00 A2984 RMK A01 T00220001  RH  086%=      5-min Rain = 0
KDO1 211607Z 17008KT 02/00 A2984 RMK A01 T002200-0  RH  085%=      5-min Rain = 0
KDO1 211608Z 17008KT 02/M00 A2984 RMK A01 T00221002  RH  084%=      5-min Rain = 0
KDO1 211609Z 18008KT 02/M00 A2984 RMK A01 T00221003  RH  084%=      5-min Rain = 0
KDO1 211610Z 18007KT 02/M00 A2984 RMK A01 T00211003  RH  084%=      5-min Rain = 0
KDO1 211611Z 18005KT 02/M00 A2984 RMK A01 T00211002  RH  085%=      5-min Rain = 0
KDO1 211612Z 18004KT 02/M00 A2985 RMK A01 T00221001  RH  085%=      5-min Rain = 0
KDO1 211613Z 18004KT 02/00 A2984 RMK A01 T002300-0  RH  085%=      5-min Rain = 0
KDO1 211614Z 17005KT 02/00 A2984 RMK A01 T00230000  RH  085%=      5-min Rain = 0
KDO1 211615Z 16005KT 02/00 A2984 RMK A01 T00240001  RH  085%=      5-min Rain = 0
KDO1 211616Z 16007KT 03/00 A2983 RMK A01 T00250000  RH  084%=      5-min Rain = 0
KDO1 211617Z 15006KT 03/00 A2983 RMK A01 T00260000  RH  083%=      5-min Rain = 0
KDO1 211618Z 15007KT 03/00 A2983 RMK A01 T00270001  RH  083%=      5-min Rain = 0
KDO1 211619Z 15008KT 03/00 A2983 RMK A01 T00290001  RH  082%=      5-min Rain = 0
KDO1 211620Z 16007KT 03/00 A2983 RMK A01 T00290000  RH  081%=      5-min Rain = 0
KDO1 211621Z 16006KT 03/00 A2983 RMK A01 T002900-0  RH  081%=      5-min Rain = 0
KDO1 211622Z 15005KT 03/00 A2983 RMK A01 T002900-0  RH  081%=      5-min Rain = 0
KDO1 211623Z 16005KT 03/00 A2983 RMK A01 T00310003  RH  082%=      5-min Rain = 0
KDO1 211624Z 17008KT 03/00 A2983 RMK A01 T00320002  RH  080%=      5-min Rain = 0
KDO1 211625Z 16005KT 03/00 A2983 RMK A01 T00320001  RH  080%=      5-min Rain = 0
KDO1 211626Z 16007KT 03/00 A2983 RMK A01 T00320001  RH  080%=      5-min Rain = 0
KDO1 211627Z 17006KT 03/00 A2983 RMK A01 T00320001  RH  080%=      5-min Rain = 0
KDO1 211628Z 16006KT 03/00 A2983 RMK A01 T00330002  RH  080%=      5-min Rain = 0
KDO1 211629Z 17005KT 03/00 A2983 RMK A01 T00340003  RH  080%=      5-min Rain = 0
KDO1 211630Z 16006KT 04/00 A2983 RMK A01 T00350003  RH  079%=      5-min Rain = 0
KDO1 211631Z 15008KT 04/00 A2983 RMK A01 T00360004  RH  079%=      5-min Rain = 0
KDO1 211632Z 15009KT 04/00 A2983 RMK A01 T00370003  RH  078%=      5-min Rain = 0
KDO1 211633Z 15008KT 04/00 A2983 RMK A01 T00370002  RH  078%=      5-min Rain = 0
KDO1 211634Z 16007KT 04/00 A2983 RMK A01 T00370002  RH  078%=      5-min Rain = 0
KDO1 211635Z 15008KT 04/00 A2983 RMK A01 T00370002  RH  078%=      5-min Rain = 0
KDO1 211636Z 16009KT 04/00 A2983 RMK A01 T00380002  RH  077%=      5-min Rain = 0
KDO1 211637Z 16007KT 04/00 A2983 RMK A01 T00380002  RH  077%=      5-min Rain = 0
KDO1 211638Z 17006KT 04/00 A2983 RMK A01 T00380003  RH  078%=      5-min Rain = 0
KDO1 211639Z 18007KT 04/00 A2983 RMK A01 T00390003  RH  078%=      5-min Rain = 0
KDO1 211640Z 18008KT 04/00 A2983 RMK A01 T00390003  RH  077%=      5-min Rain = 0
KDO1 211641Z 18007KT 04/00 A2983 RMK A01 T00390003  RH  077%=      5-min Rain = 0
KDO1 211642Z 17006KT 04/00 A2983 RMK A01 T00400003  RH  077%=      5-min Rain = 0
KDO1 211643Z 18007KT 04/00 A2983 RMK A01 T00410004  RH  077%=      5-min Rain = 0
KDO1 211644Z 17006KT 04/00 A2983 RMK A01 T00420004  RH  076%=      5-min Rain = 0
KDO1 211645Z 16006KT 04/01 A2983 RMK A01 T00430005  RH  076%=      5-min Rain = 0
KDO1 211646Z 17007KT 05/01 A2983 RMK A01 T00450005  RH  076%=      5-min Rain = 0
KDO1 211647Z 16007KT 05/01 A2983 RMK A01 T00460005  RH  075%=      5-min Rain = 0
KDO1 211648Z 17006KT 05/01 A2983 RMK A01 T00480007  RH  075%=      5-min Rain = 0
KDO1 211649Z 17007KT 05/01 A2983 RMK A01 T00500008  RH  074%=      5-min Rain = 0
KDO1 211650Z 17008KT 05/01 A2982 RMK A01 T00510008  RH  074%=      5-min Rain = 0
KDO1 211651Z 17008KT 05/01 A2982 RMK A01 T00510006  RH  073%=      5-min Rain = 0
KDO1 211652Z 17007KT 05/01 A2982 RMK A01 T00510006  RH  072%=      5-min Rain = 0
KDO1 211653Z 16006KT 05/01 A2982 RMK A01 T00530007  RH  073%=      5-min Rain = 0
KDO1 211654Z 17009KT 05/01 A2982 RMK A01 T00540008  RH  072%=      5-min Rain = 0
KDO1 211655Z 17007KT 06/01 A2982 RMK A01 T00570008  RH  071%=      5-min Rain = 0
KDO1 211656Z 17010KT 06/01 A2982 RMK A01 T00600009  RH  070%=      5-min Rain = 0
KDO1 211657Z 17010KT 06/01 A2982 RMK A01 T00610007  RH  068%=      5-min Rain = 0
KDO1 211658Z 17008KT 06/01 A2982 RMK A01 T00630009  RH  069%=      5-min Rain = 0
KDO1 211659Z 17009KT 07/01 A2982 RMK A01 T00650008  RH  067%=      5-min Rain = 0
KDO1 211700Z 17008KT 07/01 A2982 RMK A01 T00660010  RH  067%=      5-min Rain = 0
KDO1 211701Z 17009KT 07/01 A2982 RMK A01 T00680009  RH  066%=      5-min Rain = 0
KDO1 211702Z 18009KT 07/01 A2982 RMK A01 T00710011  RH  066%=      5-min Rain = 0
KDO1 211703Z 17011KT 07/01 A2981 RMK A01 T00720009  RH  064%=      5-min Rain = 0
KDO1 211704Z 17011KT 07/01 A2981 RMK A01 T00720007  RH  064%=      5-min Rain = 0
KDO1 211705Z 17009KT 07/01 A2981 RMK A01 T00700008  RH  064%=      5-min Rain = 0
KDO1 211706Z 17009KT 07/01 A2981 RMK A01 T00700008  RH  064%=      5-min Rain = 0
KDO1 211707Z 18009KT 07/01 A2981 RMK A01 T00710008  RH  064%=      5-min Rain = 0
KDO1 211708Z 17012KT 07/01 A2981 RMK A01 T00720008  RH  063%=      5-min Rain = 0
KDO1 211709Z 17010KT 07/01 A2982 RMK A01 T00730008  RH  064%=      5-min Rain = 0
KDO1 211710Z 17009G14KT 08/01 A2981 RMK A01 T00750010  RH  064%=      5-min Rain = 0
KDO1 211711Z 17013KT 08/01 A2981 RMK A01 T00780010  RH  062%=      5-min Rain = 0
KDO1 211712Z 18012KT 08/01 A2981 RMK A01 T00770008  RH  061%=      5-min Rain = 0
KDO1 211713Z 19011KT 08/01 A2981 RMK A01 T00760007  RH  062%=      5-min Rain = 0
KDO1 211714Z 18011KT 08/01 A2981 RMK A01 T00760009  RH  062%=      5-min Rain = 0
KDO1 211715Z 17010KT 08/01 A2981 RMK A01 T00780009  RH  062%=      5-min Rain = 0
KDO1 211716Z 17010KT 08/01 A2981 RMK A01 T00800010  RH  061%=      5-min Rain = 0
KDO1 211717Z 18009KT 08/01 A2981 RMK A01 T00820010  RH  061%=      5-min Rain = 0
KDO1 211718Z 17011KT 08/01 A2981 RMK A01 T00830011  RH  061%=      5-min Rain = 0
KDO1 211719Z 17013KT 08/01 A2981 RMK A01 T00840008  RH  059%=      5-min Rain = 0
KDO1 211720Z 18010KT 08/01 A2981 RMK A01 T00820007  RH  059%=      5-min Rain = 0
KDO1 211721Z 18011KT 08/01 A2981 RMK A01 T00820008  RH  060%=      5-min Rain = 0
KDO1 211722Z 17012KT 08/01 A2981 RMK A01 T00830008  RH  059%=      5-min Rain = 0
KDO1 211723Z 18010KT 08/01 A2981 RMK A01 T00830007  RH  059%=      5-min Rain = 0
KDO1 211724Z 18011KT 09/01 A2982 RMK A01 T00850010  RH  059%=      5-min Rain = 0
KDO1 211725Z 18014KT 09/01 A2982 RMK A01 T00870009  RH  058%=      5-min Rain = 0
KDO1 211726Z 18013KT 09/01 A2982 RMK A01 T00870008  RH  057%=      5-min Rain = 0
KDO1 211727Z 18013KT 09/01 A2982 RMK A01 T00860007  RH  058%=      5-min Rain = 0
KDO1 211728Z 18012KT 09/01 A2981 RMK A01 T00870008  RH  058%=      5-min Rain = 0
KDO1 211729Z 17012KT 09/01 A2981 RMK A01 T00870008  RH  057%=      5-min Rain = 0
KDO1 211730Z 17012KT 09/01 A2981 RMK A01 T00880008  RH  057%=      5-min Rain = 0
KDO1 211731Z 18013KT 09/01 A2981 RMK A01 T00900009  RH  057%=      5-min Rain = 0
KDO1 211732Z 18014KT 09/01 A2982 RMK A01 T00910009  RH  057%=      5-min Rain = 0
KDO1 211733Z 18010KT 09/01 A2982 RMK A01 T00910007  RH  056%=      5-min Rain = 0
KDO1 211734Z 18010KT 09/01 A2982 RMK A01 T00910009  RH  056%=      5-min Rain = 0
KDO1 211735Z 18011KT 09/01 A2982 RMK A01 T00920009  RH  056%=      5-min Rain = 0
KDO1 211736Z 19012KT 09/01 A2982 RMK A01 T00930010  RH  056%=      5-min Rain = 0
KDO1 211737Z 20013KT 09/01 A2982 RMK A01 T00940008  RH  055%=      5-min Rain = 0
KDO1 211738Z 19014KT 09/01 A2982 RMK A01 T00940008  RH  055%=      5-min Rain = 0
KDO1 211739Z 19012KT 09/01 A2981 RMK A01 T00940008  RH  055%=      5-min Rain = 0
KDO1 211740Z 19013KT 10/01 A2981 RMK A01 T00950010  RH  055%=      5-min Rain = 0
KDO1 211741Z 19012KT 10/01 A2981 RMK A01 T00970009  RH  054%=      5-min Rain = 0
KDO1 211742Z 19012KT 10/01 A2981 RMK A01 T00960008  RH  054%=      5-min Rain = 0
KDO1 211743Z 18013KT 10/01 A2981 RMK A01 T00950009  RH  055%=      5-min Rain = 0
KDO1 211744Z 19014KT 10/01 A2981 RMK A01 T00960009  RH  054%=      5-min Rain = 0
KDO1 211745Z 19014KT 10/01 A2981 RMK A01 T00970008  RH  054%=      5-min Rain = 0
KDO1 211746Z 19013KT 10/01 A2981 RMK A01 T00980010  RH  054%=      5-min Rain = 0
KDO1 211747Z 19012KT 10/01 A298 RMK A01 T01000009  RH  053%=      5-min Rain = 0
KDO1 211748Z 19011KT 10/01 A298 RMK A01 T01000011  RH  054%=      5-min Rain = 0
KDO1 211749Z 20012KT 10/01 A298 RMK A01 T01020012  RH  053%=      5-min Rain = 0
KDO1 211750Z 20012KT 10/01 A298 RMK A01 T01030011  RH  053%=      5-min Rain = 0
KDO1 211751Z 19014KT 10/01 A298 RMK A01 T01030011  RH  053%=      5-min Rain = 0
KDO1 211752Z 19014KT 10/01 A298 RMK A01 T01020009  RH  052%=      5-min Rain = 0
KDO1 211753Z 19013KT 10/01 A298 RMK A01 T01010009  RH  053%=      5-min Rain = 0
KDO1 211754Z 17014KT 10/01 A298 RMK A01 T01020010  RH  053%=      5-min Rain = 0
KDO1 211755Z 17012KT 10/01 A298 RMK A01 T01020010  RH  053%=      5-min Rain = 0
KDO1 211756Z 18013KT 10/01 A298 RMK A01 T01040011  RH  052%=      5-min Rain = 0
KDO1 211757Z 18011KT 11/01 A298 RMK A01 T01050011  RH  052%=      5-min Rain = 0
KDO1 211758Z 18010KT 11/01 A298 RMK A01 T01050012  RH  052%=      5-min Rain = 0
KDO1 211759Z 18013KT 11/01 A298 RMK A01 T01060010  RH  051%=      5-min Rain = 0
KDO1 211800Z 19010G15KT 11/01 A298 RMK A01 T01060010  RH  052%=      5-min Rain = 0
KDO1 211801Z 18012KT 11/01 A298 RMK A01 T01070013  RH  052%=      5-min Rain = 0
KDO1 211802Z 18011KT 11/01 A298 RMK A01 T01090014  RH  052%=      5-min Rain = 0
KDO1 211803Z 19012KT 11/01 A298 RMK A01 T01110012  RH  050%=      5-min Rain = 0
KDO1 211804Z 19013KT 11/01 A298 RMK A01 T01120012  RH  050%=      5-min Rain = 0
KDO1 211805Z 19010KT 11/01 A298 RMK A01 T01120011  RH  050%=      5-min Rain = 0
KDO1 211806Z 19009KT 11/02 A298 RMK A01 T01140015  RH  050%=      5-min Rain = 0
KDO1 211807Z 19012KT 12/02 A2979 RMK A01 T01180015  RH  049%=      5-min Rain = 0
KDO1 211808Z 19012KT 12/01 A2979 RMK A01 T01190012  RH  048%=      5-min Rain = 0
KDO1 211809Z 19012KT 12/01 A2979 RMK A01 T01180012  RH  048%=      5-min Rain = 0
KDO1 211810Z 19013KT 12/01 A2979 RMK A01 T01190013  RH  048%=      5-min Rain = 0
KDO1 211811Z 19013KT 12/01 A2979 RMK A01 T01170009  RH  047%=      5-min Rain = 0
KDO1 211812Z 18013KT 11/01 A2979 RMK A01 T01140009  RH  048%=      5-min Rain = 0
KDO1 211813Z 17013KT 11/01 A2979 RMK A01 T01140009  RH  048%=      5-min Rain = 0
KDO1 211814Z 17009KT 11/01 A2979 RMK A01 T01130009  RH  049%=      5-min Rain = 0
KDO1 211815Z 18008KT 12/01 A2979 RMK A01 T01160013  RH  049%=      5-min Rain = 0
KDO1 211816Z 18010KT 12/02 A2979 RMK A01 T01210016  RH  048%=      5-min Rain = 0
KDO1 211817Z 18012KT 12/02 A2978 RMK A01 T01240016  RH  048%=      5-min Rain = 0
KDO1 211818Z 18014KT 13/01 A2978 RMK A01 T01250011  RH  046%=      5-min Rain = 0
KDO1 211819Z 18013KT 12/01 A2978 RMK A01 T01240009  RH  046%=      5-min Rain = 0
KDO1 211820Z 18012KT 13/01 A2978 RMK A01 T01250011  RH  046%=      5-min Rain = 0
KDO1 211821Z 17010G15KT 13/01 A2978 RMK A01 T01280012  RH  045%=      5-min Rain = 0
KDO1 211822Z 19015KT 13/01 A2978 RMK A01 T01300012  RH  044%=      5-min Rain = 0
KDO1 211823Z 19014KT 13/01 A2978 RMK A01 T01300009  RH  044%=      5-min Rain = 0
KDO1 211824Z 18014KT 13/01 A2978 RMK A01 T01300008  RH  043%=      5-min Rain = 0
KDO1 211825Z 18012KT 13/01 A2977 RMK A01 T01280008  RH  044%=      5-min Rain = 0
KDO1 211826Z 18012G19KT 13/01 A2977 RMK A01 T01280009  RH  044%=      5-min Rain = 0
KDO1 211827Z 18018KT 13/01 A2977 RMK A01 T01290008  RH  043%=      5-min Rain = 0
KDO1 211828Z 18018KT 13/00 A2977 RMK A01 T01280004  RH  043%=      5-min Rain = 0
KDO1 211829Z 17018KT 13/00 A2977 RMK A01 T01260003  RH  043%=      5-min Rain = 0
KDO1 211830Z 17015KT 13/00 A2977 RMK A01 T01250003  RH  043%=      5-min Rain = 0
KDO1 211831Z 18016KT 13/00 A2977 RMK A01 T01250003  RH  043%=      5-min Rain = 0
KDO1 211832Z 19014KT 13/00 A2977 RMK A01 T01260004  RH  043%=      5-min Rain = 0
KDO1 211833Z 18015KT 13/01 A2977 RMK A01 T01270005  RH  043%=      5-min Rain = 0
KDO1 211834Z 19016G21KT 13/01 A2977 RMK A01 T01290006  RH  043%=      5-min Rain = 0
KDO1 211835Z 19018KT 13/01 A2977 RMK A01 T01310005  RH  042%=      5-min Rain = 0
KDO1 211836Z 19018KT 13/00 A2976 RMK A01 T01300004  RH  042%=      5-min Rain = 0
KDO1 211837Z 18017KT 13/01 A2976 RMK A01 T01310005  RH  042%=      5-min Rain = 0
KDO1 211838Z 18014KT 13/01 A2976 RMK A01 T01320005  RH  042%=      5-min Rain = 0
KDO1 211839Z 18015KT 13/01 A2976 RMK A01 T01330006  RH  042%=      5-min Rain = 0
KDO1 211840Z 19018KT 13/01 A2976 RMK A01 T01340006  RH  042%=      5-min Rain = 0
KDO1 211841Z 18016KT 13/01 A2976 RMK A01 T01320005  RH  042%=      5-min Rain = 0
KDO1 211842Z 16013KT 13/01 A2976 RMK A01 T01310007  RH  043%=      5-min Rain = 0
KDO1 211843Z 17011KT 13/01 A2976 RMK A01 T01310008  RH  043%=      5-min Rain = 0
KDO1 211844Z 18012KT 13/01 A2976 RMK A01 T01320008  RH  043%=      5-min Rain = 0
KDO1 211845Z 18015KT 13/01 A2976 RMK A01 T01340009  RH  042%=      5-min Rain = 0
KDO1 211846Z 17015KT 13/01 A2976 RMK A01 T01340008  RH  042%=      5-min Rain = 0
KDO1 211847Z 17014KT 13/01 A2976 RMK A01 T01330006  RH  042%=      5-min Rain = 0
KDO1 211848Z 18014KT 13/01 A2976 RMK A01 T01320006  RH  042%=      5-min Rain = 0
KDO1 211849Z 18015KT 13/01 A2976 RMK A01 T01320006  RH  042%=      5-min Rain = 0
KDO1 211850Z 18018KT 13/01 A2976 RMK A01 T01320005  RH  042%=      5-min Rain = 0
KDO1 211851Z 18016KT 13/01 A2976 RMK A01 T01310005  RH  042%=      5-min Rain = 0
KDO1 211852Z 18016KT 13/01 A2975 RMK A01 T01310005  RH  042%=      5-min Rain = 0
KDO1 211853Z 19012KT 13/01 A2975 RMK A01 T01320008  RH  043%=      5-min Rain = 0
KDO1 211854Z 18014KT 14/01 A2975 RMK A01 T01370010  RH  042%=      5-min Rain = 0
KDO1 211855Z 17015KT 14/01 A2975 RMK A01 T01390008  RH  041%=      5-min Rain = 0
KDO1 211856Z 17015KT 14/01 A2975 RMK A01 T01380007  RH  041%=      5-min Rain = 0
KDO1 211857Z 18012KT 14/01 A2975 RMK A01 T01370007  RH  041%=      5-min Rain = 0
KDO1 211858Z 19015KT 14/01 A2975 RMK A01 T01380007  RH  041%=      5-min Rain = 0
KDO1 211859Z 18014KT 14/01 A2975 RMK A01 T01380005  RH  040%=      5-min Rain = 0
KDO1 211900Z 19013KT 14/01 A2975 RMK A01 T01370008  RH  041%=      5-min Rain = 0
KDO1 211901Z 18016KT 14/01 A2975 RMK A01 T01380007  RH  041%=      5-min Rain = 0
KDO1 211902Z 19012KT 14/01 A2975 RMK A01 T01380005  RH  040%=      5-min Rain = 0
KDO1 211903Z 17013KT 14/01 A2975 RMK A01 T01370006  RH  041%=      5-min Rain = 0
KDO1 211904Z 17014KT 14/01 A2975 RMK A01 T01380006  RH  041%=      5-min Rain = 0
KDO1 211905Z 17016KT 14/01 A2975 RMK A01 T01380005  RH  040%=      5-min Rain = 0
KDO1 211906Z 16015KT 14/00 A2975 RMK A01 T01360004  RH  040%=      5-min Rain = 0
KDO1 211907Z 17013KT 13/00 A2975 RMK A01 T01340004  RH  041%=      5-min Rain = 0
KDO1 211908Z 17014KT 13/01 A2975 RMK A01 T01340005  RH  041%=      5-min Rain = 0
KDO1 211909Z 18014KT 14/01 A2975 RMK A01 T01360007  RH  041%=      5-min Rain = 0
KDO1 211910Z 17014KT 14/01 A2974 RMK A01 T01380007  RH  041%=      5-min Rain = 0
KDO1 211911Z 17013KT 14/01 A2974 RMK A01 T01390007  RH  040%=      5-min Rain = 0
KDO1 211912Z 17012KT 14/01 A2974 RMK A01 T01400008  RH  041%=      5-min Rain = 0
KDO1 211913Z 18014KT 14/01 A2974 RMK A01 T01430009  RH  040%=      5-min Rain = 0
KDO1 211914Z 18013KT 14/01 A2974 RMK A01 T01440009  RH  040%=      5-min Rain = 0
KDO1 211915Z 18012KT 15/01 A2974 RMK A01 T01450012  RH  040%=      5-min Rain = 0
KDO1 211916Z 17017KT 15/01 A2974 RMK A01 T01470010  RH  039%=      5-min Rain = 0
KDO1 211917Z 17015KT 15/01 A2974 RMK A01 T01460007  RH  039%=      5-min Rain = 0
KDO1 211918Z 17015KT 14/01 A2974 RMK A01 T01440006  RH  039%=      5-min Rain = 0
KDO1 211919Z 16015KT 14/01 A2974 RMK A01 T01430006  RH  039%=      5-min Rain = 0
KDO1 211920Z 18014G20KT 14/01 A2974 RMK A01 T01430008  RH  040%=      5-min Rain = 0
KDO1 211921Z 18017KT 15/01 A2973 RMK A01 T01450008  RH  039%=      5-min Rain = 0
KDO1 211922Z 18015G20KT 15/01 A2973 RMK A01 T01460007  RH  039%=      5-min Rain = 0
KDO1 211923Z 18013KT 15/01 A2973 RMK A01 T01470007  RH  039%=      5-min Rain = 0
KDO1 211924Z 17012G18KT 15/01 A2973 RMK A01 T01490008  RH  038%=      5-min Rain = 0
KDO1 211925Z 17015KT 15/01 A2973 RMK A01 T01510008  RH  038%=      5-min Rain = 0
KDO1 211926Z 17016KT 15/01 A2973 RMK A01 T01520006  RH  037%=      5-min Rain = 0
KDO1 211927Z 17014KT 15/01 A2973 RMK A01 T01520006  RH  037%=      5-min Rain = 0
KDO1 211928Z 17014KT 15/01 A2973 RMK A01 T01530006  RH  037%=      5-min Rain = 0
KDO1 211929Z 17014G19KT 15/01 A2973 RMK A01 T01530005  RH  037%=      5-min Rain = 0
KDO1 211930Z 17011KT 15/01 A2973 RMK A01 T01530006  RH  037%=      5-min Rain = 0
KDO1 211931Z 18011G16KT 16/01 A2973 RMK A01 T01550008  RH  037%=      5-min Rain = 0
KDO1 211932Z 18017KT 16/01 A2972 RMK A01 T01570007  RH  036%=      5-min Rain = 0
KDO1 211933Z 18016KT 16/01 A2972 RMK A01 T01560005  RH  036%=      5-min Rain = 0
KDO1 211934Z 18014KT 16/01 A2972 RMK A01 T01550006  RH  036%=      5-min Rain = 0
KDO1 211935Z 18010G15KT 16/01 A2972 RMK A01 T01550006  RH  036%=      5-min Rain = 0
KDO1 211936Z 17012G18KT 16/01 A2972 RMK A01 T01570008  RH  036%=      5-min Rain = 0
KDO1 211937Z 17013KT 16/01 A2972 RMK A01 T01580006  RH  035%=      5-min Rain = 0
KDO1 211938Z 17016KT 16/01 A2972 RMK A01 T01600005  RH  035%=      5-min Rain = 0
KDO1 211939Z 18015KT 16/00 A2972 RMK A01 T01600004  RH  035%=      5-min Rain = 0
KDO1 211940Z 18015KT 16/01 A2971 RMK A01 T01620005  RH  034%=      5-min Rain = 0
KDO1 211941Z 17014KT 16/00 A2971 RMK A01 T01620004  RH  034%=      5-min Rain = 0
KDO1 211942Z 17015KT 16/00 A2971 RMK A01 T01640004  RH  034%=      5-min Rain = 0
KDO1 211943Z 17015KT 17/00 A2971 RMK A01 T01660004  RH  033%=      5-min Rain = 0
KDO1 211944Z 18014KT 17/00 A2971 RMK A01 T01660003  RH  033%=      5-min Rain = 0
KDO1 211945Z 17012KT 17/00 A2971 RMK A01 T01660003  RH  033%=      5-min Rain = 0
KDO1 211946Z 17014KT 17/00 A2971 RMK A01 T01660003  RH  033%=      5-min Rain = 0
KDO1 211947Z 17011KT 17/01 A2971 RMK A01 T01670005  RH  033%=      5-min Rain = 0
KDO1 211948Z 18014KT 17/01 A297 RMK A01 T01700007  RH  033%=      5-min Rain = 0
KDO1 211949Z 18014KT 17/00 A297 RMK A01 T01720004  RH  032%=      5-min Rain = 0
KDO1 211950Z 19016KT 17/00 A297 RMK A01 T01720003  RH  032%=      5-min Rain = 0
KDO1 211951Z 18017KT 17/00 A297 RMK A01 T01730003  RH  031%=      5-min Rain = 0
KDO1 211952Z 18015KT 17/00 A297 RMK A01 T01740004  RH  032%=      5-min Rain = 0
KDO1 211953Z 17014KT 17/00 A297 RMK A01 T01740001  RH  031%=      5-min Rain = 0
KDO1 211954Z 19014KT 17/00 A297 RMK A01 T01730001  RH  031%=      5-min Rain = 0
KDO1 211955Z 19016KT 17/00 A297 RMK A01 T01730001  RH  031%=      5-min Rain = 0
KDO1 211956Z 19015KT 17/00 A297 RMK A01 T01720001  RH  031%=      5-min Rain = 0
KDO1 211957Z 19017KT 17/00 A297 RMK A01 T01710001  RH  031%=      5-min Rain = 0
KDO1 211958Z 19016KT 17/00 A297 RMK A01 T01710001  RH  031%=      5-min Rain = 0
KDO1 211959Z 19014KT 17/00 A297 RMK A01 T01710000  RH  031%=      5-min Rain = 0
KDO1 212000Z 18014KT 17/00 A297 RMK A01 T01720001  RH  031%=      5-min Rain = 0
KDO1 212001Z 17014KT 17/00 A297 RMK A01 T01720001  RH  031%=      5-min Rain = 0
KDO1 212002Z 15013KT 17/00 A2969 RMK A01 T017300-0  RH  031%=      5-min Rain = 0
KDO1 212003Z 16013G18KT 17/00 A2969 RMK A01 T017300-0  RH  031%=      5-min Rain = 0
KDO1 212004Z 17012KT 17/M00 A2969 RMK A01 T01731001  RH  031%=      5-min Rain = 0
KDO1 212005Z 17010KT 17/00 A2969 RMK A01 T01730001  RH  031%=      5-min Rain = 0
KDO1 212006Z 17014G19KT 18/00 A2969 RMK A01 T01760003  RH  031%=      5-min Rain = 0
KDO1 212007Z 16017KT 18/M00 A2969 RMK A01 T01781002  RH  030%=      5-min Rain = 0
KDO1 212008Z 17013KT 18/M00 A2968 RMK A01 T01781002  RH  030%=      5-min Rain = 0
KDO1 212009Z 16015G20KT 18/00 A2968 RMK A01 T017900-0  RH  030%=      5-min Rain = 0
KDO1 212010Z 16015KT 18/M00 A2968 RMK A01 T01801001  RH  029%=      5-min Rain = 0
KDO1 212011Z 16016KT 18/00 A2968 RMK A01 T018100-0  RH  029%=      5-min Rain = 0
KDO1 212012Z 17014KT 18/M00 A2968 RMK A01 T01811001  RH  029%=      5-min Rain = 0
KDO1 212013Z 16015G20KT 18/00 A2968 RMK A01 T01800001  RH  030%=      5-min Rain = 0
KDO1 212014Z 16017KT 18/00 A2968 RMK A01 T01800001  RH  030%=      5-min Rain = 0
KDO1 212015Z 15014KT 18/M00 A2968 RMK A01 T01791001  RH  030%=      5-min Rain = 0
KDO1 212016Z 16015KT 18/00 A2968 RMK A01 T01780001  RH  030%=      5-min Rain = 0
KDO1 212017Z 16014KT 18/00 A2968 RMK A01 T01780000  RH  030%=      5-min Rain = 0
KDO1 212018Z 16016KT 18/00 A2968 RMK A01 T017800-0  RH  030%=      5-min Rain = 0
KDO1 212019Z 17016KT 18/M00 A2968 RMK A01 T01781001  RH  030%=      5-min Rain = 0
KDO1 212020Z 17015KT 18/M00 A2968 RMK A01 T01781001  RH  030%=      5-min Rain = 0
KDO1 212021Z 17015KT 18/M00 A2968 RMK A01 T01781001  RH  030%=      5-min Rain = 0
KDO1 212022Z 18013KT 18/M00 A2967 RMK A01 T01781002  RH  029%=      5-min Rain = 0
KDO1 212023Z 17014G19KT 18/M00 A2967 RMK A01 T01791001  RH  030%=      5-min Rain = 0
KDO1 212024Z 16014KT 18/00 A2967 RMK A01 T01810000  RH  030%=      5-min Rain = 0
KDO1 212025Z 17012KT 18/00 A2967 RMK A01 T018200-0  RH  029%=      5-min Rain = 0
KDO1 212026Z 17013KT 18/00 A2967 RMK A01 T01820000  RH  029%=      5-min Rain = 0
KDO1 212027Z 17015KT 18/M00 A2967 RMK A01 T01831001  RH  029%=      5-min Rain = 0
KDO1 212028Z 17016KT 18/M00 A2967 RMK A01 T01831003  RH  029%=      5-min Rain = 0
KDO1 212029Z 17015KT 18/M00 A2967 RMK A01 T01831003  RH  029%=      5-min Rain = 0
KDO1 212030Z 18017KT 18/M00 A2967 RMK A01 T01821002  RH  029%=      5-min Rain = 0
KDO1 212031Z 17015KT 18/M00 A2967 RMK A01 T01831003  RH  029%=      5-min Rain = 0
KDO1 212032Z 17015KT 18/M00 A2967 RMK A01 T01831003  RH  029%=      5-min Rain = 0
KDO1 212033Z 17015KT 18/M00 A2967 RMK A01 T01841001  RH  029%=      5-min Rain = 0
KDO1 212034Z 17015KT 19/M00 A2967 RMK A01 T01861002  RH  028%=      5-min Rain = 0
KDO1 212035Z 17016KT 19/M00 A2967 RMK A01 T01871003  RH  028%=      5-min Rain = 0
KDO1 212036Z 17015KT 19/M00 A2967 RMK A01 T01881004  RH  027%=      5-min Rain = 0
KDO1 212037Z 17012KT 19/M00 A2967 RMK A01 T01871003  RH  028%=      5-min Rain = 0
KDO1 212038Z 16016KT 19/M00 A2967 RMK A01 T01881004  RH  027%=      5-min Rain = 0
KDO1 212039Z 15016KT 19/M00 A2967 RMK A01 T01881004  RH  027%=      5-min Rain = 0
KDO1 212040Z 16016KT 19/M00 A2967 RMK A01 T01891003  RH  027%=      5-min Rain = 0
KDO1 212041Z 17017KT 19/M00 A2967 RMK A01 T01911003  RH  027%=      5-min Rain = 0
KDO1 212042Z 17014KT 19/M00 A2966 RMK A01 T01921004  RH  027%=      5-min Rain = 0
KDO1 212043Z 17016KT 19/M00 A2966 RMK A01 T01921003  RH  027%=      5-min Rain = 0
KDO1 212044Z 17016KT 19/M00 A2966 RMK A01 T01921004  RH  027%=      5-min Rain = 0
KDO1 212045Z 18013KT 19/M01 A2966 RMK A01 T01931005  RH  026%=      5-min Rain = 0
KDO1 212046Z 18012KT 19/M00 A2966 RMK A01 T01931003  RH  027%=      5-min Rain = 0
KDO1 212047Z 19015G21KT 20/M00 A2966 RMK A01 T01951001  RH  027%=      5-min Rain = 0
KDO1 212048Z 18018KT 20/M00 A2966 RMK A01 T01961003  RH  026%=      5-min Rain = 0
KDO1 212049Z 17018KT 20/M00 A2966 RMK A01 T01961004  RH  026%=      5-min Rain = 0
KDO1 212050Z 18018KT 20/M00 A2966 RMK A01 T01961004  RH  026%=      5-min Rain = 0
KDO1 212051Z 18017KT 20/M00 A2966 RMK A01 T01961003  RH  026%=      5-min Rain = 0
KDO1 212052Z 19017KT 20/M00 A2966 RMK A01 T01961003  RH  026%=      5-min Rain = 0
KDO1 212053Z 17017KT 20/M00 A2966 RMK A01 T01961002  RH  027%=      5-min Rain = 0
KDO1 212054Z 17018KT 20/M00 A2966 RMK A01 T01961003  RH  026%=      5-min Rain = 0
KDO1 212055Z 15019G24KT 20/M00 A2966 RMK A01 T01951004  RH  026%=      5-min Rain = 0
KDO1 212056Z 16016KT 19/M00 A2966 RMK A01 T01941003  RH  027%=      5-min Rain = 0
KDO1 212057Z 16017KT 19/M00 A2966 RMK A01 T01941003  RH  027%=      5-min Rain = 0
KDO1 212058Z 15013G19KT 19/M00 A2966 RMK A01 T01931002  RH  027%=      5-min Rain = 0
KDO1 212059Z 15018G23KT 19/M00 A2965 RMK A01 T01941002  RH  027%=      5-min Rain = 0
KDO1 212100Z 15017KT 19/M00 A2965 RMK A01 T01931002  RH  027%=      5-min Rain = 0
KDO1 212101Z 15017KT 19/M00 A2965 RMK A01 T01921003  RH  027%=      5-min Rain = 0
KDO1 212102Z 15019KT 19/M00 A2965 RMK A01 T01911003  RH  027%=      5-min Rain = 0
KDO1 212103Z 15019KT 19/M00 A2965 RMK A01 T01911003  RH  027%=      5-min Rain = 0
KDO1 212104Z 15016KT 19/M00 A2965 RMK A01 T01911004  RH  027%=      5-min Rain = 0
KDO1 212105Z 16015KT 19/M00 A2965 RMK A01 T01911003  RH  027%=      5-min Rain = 0
KDO1 212106Z 16014G19KT 19/M00 A2965 RMK A01 T01911004  RH  027%=      5-min Rain = 0
KDO1 212107Z 15019KT 19/M00 A2965 RMK A01 T01921002  RH  027%=      5-min Rain = 0
KDO1 212108Z 16018KT 19/M00 A2965 RMK A01 T01931002  RH  027%=      5-min Rain = 0
KDO1 212109Z 17017G23KT 19/M00 A2965 RMK A01 T01941002  RH  027%=      5-min Rain = 0
KDO1 212110Z 17018KT 20/M00 A2965 RMK A01 T01951004  RH  026%=      5-min Rain = 0
KDO1 212111Z 17017KT 20/M00 A2965 RMK A01 T01951004  RH  026%=      5-min Rain = 0
KDO1 212112Z 16014KT 20/M00 A2965 RMK A01 T01951003  RH  026%=      5-min Rain = 0
KDO1 212113Z 16019G24KT 20/M00 A2965 RMK A01 T01951002  RH  026%=      5-min Rain = 0
KDO1 212114Z 17020KT 20/M00 A2965 RMK A01 T01951004  RH  026%=      5-min Rain = 0
KDO1 212115Z 16018G23KT 19/M01 A2965 RMK A01 T01941005  RH  026%=      5-min Rain = 0
KDO1 212116Z 16017KT 19/M00 A2965 RMK A01 T01931004  RH  026%=      5-min Rain = 0
KDO1 212117Z 16016KT 19/M00 A2965 RMK A01 T01931004  RH  027%=      5-min Rain = 0
KDO1 212118Z 16016G21KT 19/M00 A2965 RMK A01 T01941004  RH  026%=      5-min Rain = 0
KDO1 212119Z 15018KT 19/M00 A2965 RMK A01 T01941003  RH  027%=      5-min Rain = 0
KDO1 212120Z 16019KT 19/M00 A2965 RMK A01 T01941003  RH  026%=      5-min Rain = 0
KDO1 212121Z 15021KT 19/M00 A2965 RMK A01 T01941004  RH  026%=      5-min Rain = 0
KDO1 212122Z 15019G24KT 19/M01 A2965 RMK A01 T01931005  RH  026%=      5-min Rain = 0
KDO1 212123Z 16017G23KT 19/M01 A2965 RMK A01 T01931005  RH  026%=      5-min Rain = 0
KDO1 212124Z 16018KT 19/M00 A2965 RMK A01 T01931004  RH  027%=      5-min Rain = 0
KDO1 212125Z 16021KT 19/M01 A2965 RMK A01 T01931005  RH  026%=      5-min Rain = 0
KDO1 212126Z 16016G21KT 19/M01 A2965 RMK A01 T01921005  RH  026%=      5-min Rain = 0
KDO1 212127Z 16018KT 19/M00 A2965 RMK A01 T01931004  RH  027%=      5-min Rain = 0
KDO1 212128Z 16019G24KT 19/M01 A2965 RMK A01 T01931005  RH  026%=      5-min Rain = 0
KDO1 212129Z 16015KT 19/M01 A2965 RMK A01 T01931005  RH  026%=      5-min Rain = 0
KDO1 212130Z 16017G22KT 19/M01 A2965 RMK A01 T01921005  RH  026%=      5-min Rain = 0
KDO1 212131Z 15013G18KT 19/M01 A2965 RMK A01 T01921005  RH  027%=      5-min Rain = 0
KDO1 212132Z 16016KT 19/M00 A2965 RMK A01 T01921003  RH  027%=      5-min Rain = 0
KDO1 212133Z 15013G18KT 19/M00 A2965 RMK A01 T01931004  RH  027%=      5-min Rain = 0
KDO1 212134Z 16014G19KT 19/M00 A2965 RMK A01 T01921004  RH  027%=      5-min Rain = 0
KDO1 212135Z 16013G18KT 19/M00 A2965 RMK A01 T01931003  RH  027%=      5-min Rain = 0
KDO1 212136Z 16012G17KT 19/M00 A2965 RMK A01 T01921003  RH  027%=      5-min Rain = 0
KDO1 212137Z 17012G17KT 19/M00 A2965 RMK A01 T01921003  RH  027%=      5-min Rain = 0
KDO1 212138Z 16016G21KT 19/M00 A2964 RMK A01 T01931002  RH  027%=      5-min Rain = 0
KDO1 212139Z 16019KT 19/M00 A2964 RMK A01 T01931004  RH  027%=      5-min Rain = 0
KDO1 212140Z 16015KT 19/M00 A2964 RMK A01 T01931004  RH  027%=      5-min Rain = 0
KDO1 212141Z 16014KT 19/M00 A2964 RMK A01 T01921004  RH  027%=      5-min Rain = 0
KDO1 212142Z 15015KT 19/M00 A2964 RMK A01 T01931003  RH  027%=      5-min Rain = 0
KDO1 212143Z 15013KT 20/M00 A2964 RMK A01 T01951001  RH  027%=      5-min Rain = 0
KDO1 212144Z 15016G21KT 20/M00 A2964 RMK A01 T01971001  RH  027%=      5-min Rain = 0
KDO1 212145Z 16018G23KT 20/M00 A2964 RMK A01 T01981003  RH  026%=      5-min Rain = 0
KDO1 212146Z 15015KT 20/M00 A2964 RMK A01 T01981001  RH  026%=      5-min Rain = 0
KDO1 212147Z 15019G24KT 20/M00 A2964 RMK A01 T01981001  RH  026%=      5-min Rain = 0
KDO1 212148Z 15017KT 20/M00 A2964 RMK A01 T01981002  RH  026%=      5-min Rain = 0
KDO1 212149Z 15016KT 20/M00 A2964 RMK A01 T01971002  RH  026%=      5-min Rain = 0
KDO1 212150Z 15018G25KT 20/M00 A2964 RMK A01 T01971002  RH  026%=      5-min Rain = 0
KDO1 212151Z 15019KT 20/M00 A2964 RMK A01 T01961003  RH  026%=      5-min Rain = 0
KDO1 212152Z 16020KT 19/M00 A2964 RMK A01 T01941004  RH  026%=      5-min Rain = 0
KDO1 212153Z 16017KT 19/M00 A2964 RMK A01 T01941004  RH  026%=      5-min Rain = 0
KDO1 212154Z 16018KT 19/M00 A2964 RMK A01 T01931004  RH  027%=      5-min Rain = 0
KDO1 212155Z 16019KT 19/M00 A2964 RMK A01 T01931004  RH  027%=      5-min Rain = 0
KDO1 212156Z 16019G25KT 19/M00 A2964 RMK A01 T01931004  RH  027%=      5-min Rain = 0
KDO1 212157Z 16018G23KT 19/M00 A2964 RMK A01 T01921004  RH  027%=      5-min Rain = 0
KDO1 212158Z 16019KT 19/M00 A2964 RMK A01 T01921004  RH  027%=      5-min Rain = 0
KDO1 212159Z 16013KT 19/M00 A2964 RMK A01 T01921003  RH  027%=      5-min Rain = 0
KDO1 212200Z 16016KT 19/M00 A2964 RMK A01 T01921002  RH  027%=      5-min Rain = 0
KDO1 212201Z 16014KT 19/M00 A2964 RMK A01 T01921003  RH  027%=      5-min Rain = 0
KDO1 212202Z 16016KT 19/M00 A2964 RMK A01 T01921002  RH  027%=      5-min Rain = 0
KDO1 212203Z 16018G23KT 19/M00 A2964 RMK A01 T01921003  RH  027%=      5-min Rain = 0
KDO1 212204Z 16019KT 19/M00 A2964 RMK A01 T01921003  RH  027%=      5-min Rain = 0
KDO1 212205Z 15019KT 19/M00 A2963 RMK A01 T01921004  RH  027%=      5-min Rain = 0
KDO1 212206Z 16019G25KT 19/M00 A2964 RMK A01 T01911004  RH  027%=      5-min Rain = 0
KDO1 212207Z 16017G22KT 19/M00 A2963 RMK A01 T01911003  RH  027%=      5-min Rain = 0
KDO1 212208Z 16020KT 19/M00 A2963 RMK A01 T01911004  RH  027%=      5-min Rain = 0
KDO1 212209Z 16019KT 19/M00 A2963 RMK A01 T01901004  RH  027%=      5-min Rain = 0
KDO1 212210Z 17018KT 19/M00 A2963 RMK A01 T01911004  RH  027%=      5-min Rain = 0
KDO1 212211Z 16018G23KT 19/M00 A2963 RMK A01 T01901004  RH  027%=      5-min Rain = 0
KDO1 212212Z 16015KT 19/M00 A2963 RMK A01 T01911003  RH  027%=      5-min Rain = 0
KDO1 212213Z 16018KT 19/M00 A2963 RMK A01 T01901003  RH  027%=      5-min Rain = 0
KDO1 212214Z 16017KT 19/M00 A2963 RMK A01 T01891003  RH  027%=      5-min Rain = 0
KDO1 212215Z 16017G22KT 19/M00 A2963 RMK A01 T01891003  RH  027%=      5-min Rain = 0
KDO1 212216Z 16018KT 19/M00 A2963 RMK A01 T01891002  RH  027%=      5-min Rain = 0
KDO1 212217Z 16016KT 19/M00 A2963 RMK A01 T01891003  RH  027%=      5-min Rain = 0
KDO1 212218Z 16015KT 19/M00 A2963 RMK A01 T01891003  RH  027%=      5-min Rain = 0
KDO1 212219Z 16018KT 19/M00 A2963 RMK A01 T01891003  RH  027%=      5-min Rain = 0
KDO1 212220Z 16013KT 19/M00 A2963 RMK A01 T01901003  RH  027%=      5-min Rain = 0
KDO1 212221Z 16013KT 19/M00 A2963 RMK A01 T01901002  RH  027%=      5-min Rain = 0
KDO1 212222Z 15012KT 19/M00 A2963 RMK A01 T01911002  RH  027%=      5-min Rain = 0
KDO1 212223Z 16017G22KT 19/M00 A2963 RMK A01 T01911001  RH  027%=      5-min Rain = 0
KDO1 212224Z 15018KT 19/M00 A2963 RMK A01 T01911003  RH  027%=      5-min Rain = 0
KDO1 212225Z 15017KT 19/M00 A2963 RMK A01 T01921003  RH  027%=      5-min Rain = 0
KDO1 212226Z 15012KT 19/M00 A2963 RMK A01 T01921002  RH  027%=      5-min Rain = 0
KDO1 212227Z 15016KT 19/00 A2963 RMK A01 T019200-0  RH  027%=      5-min Rain = 0
KDO1 212228Z 15013G18KT 19/00 A2963 RMK A01 T01910001  RH  028%=      5-min Rain = 0
KDO1 212229Z 15014KT 19/00 A2963 RMK A01 T01900001  RH  028%=      5-min Rain = 0
KDO1 212230Z 15017KT 19/00 A2963 RMK A01 T01910001  RH  028%=      5-min Rain = 0
KDO1 212231Z 15013KT 19/00 A2963 RMK A01 T01900001  RH  028%=      5-min Rain = 0
KDO1 212232Z 15015G20KT 19/00 A2963 RMK A01 T01900001  RH  028%=      5-min Rain = 0
KDO1 212233Z 15015KT 19/00 A2963 RMK A01 T01910001  RH  028%=      5-min Rain = 0
KDO1 212234Z 15018KT 19/00 A2963 RMK A01 T01910001  RH  028%=      5-min Rain = 0
KDO1 212235Z 15013KT 19/00 A2963 RMK A01 T01900000  RH  028%=      5-min Rain = 0
KDO1 212236Z 15014G19KT 19/00 A2963 RMK A01 T01910001  RH  028%=      5-min Rain = 0
KDO1 212237Z 15016KT 19/00 A2963 RMK A01 T01920001  RH  028%=      5-min Rain = 0
KDO1 212238Z 15018G23KT 19/00 A2963 RMK A01 T01910000  RH  028%=      5-min Rain = 0
KDO1 212239Z 15017G23KT 19/M00 A2962 RMK A01 T01921001  RH  027%=      5-min Rain = 0
KDO1 212240Z 15020KT 19/00 A2962 RMK A01 T01920000  RH  028%=      5-min Rain = 0
KDO1 212241Z 15017KT 19/00 A2962 RMK A01 T01920000  RH  028%=      5-min Rain = 0
KDO1 212242Z 15015KT 19/00 A2963 RMK A01 T01910001  RH  028%=      5-min Rain = 0
KDO1 212243Z 15017G23KT 19/00 A2962 RMK A01 T01910001  RH  028%=      5-min Rain = 0
KDO1 212244Z 15018KT 19/00 A2963 RMK A01 T01900000  RH  028%=      5-min Rain = 0
KDO1 212245Z 16015KT 19/00 A2963 RMK A01 T01890000  RH  028%=      5-min Rain = 0
KDO1 212246Z 16013G19KT 19/00 A2963 RMK A01 T01890001  RH  028%=      5-min Rain = 0
KDO1 212247Z 15014KT 19/00 A2963 RMK A01 T01880001  RH  028%=      5-min Rain = 0
KDO1 212248Z 15013KT 19/00 A2963 RMK A01 T01880001  RH  028%=      5-min Rain = 0
KDO1 212249Z 14011G17KT 19/00 A2963 RMK A01 T01880002  RH  029%=      5-min Rain = 0
KDO1 212250Z 15014KT 19/00 A2963 RMK A01 T01880003  RH  029%=      5-min Rain = 0
KDO1 212251Z 15014G19KT 19/00 A2963 RMK A01 T01870003  RH  029%=      5-min Rain = 0
KDO1 212252Z 15015KT 19/00 A2962 RMK A01 T01860003  RH  029%=      5-min Rain = 0
KDO1 212253Z 14013KT 19/00 A2962 RMK A01 T01860003  RH  029%=      5-min Rain = 0
KDO1 212254Z 15013KT 19/00 A2962 RMK A01 T01850003  RH  029%=      5-min Rain = 0
KDO1 212255Z 15015KT 18/00 A2962 RMK A01 T01840003  RH  030%=      5-min Rain = 0
KDO1 212256Z 15016KT 18/00 A2962 RMK A01 T01840003  RH  030%=      5-min Rain = 0
KDO1 212257Z 15013G18KT 18/00 A2962 RMK A01 T01830003  RH  030%=      5-min Rain = 0
KDO1 212258Z 15016KT 18/00 A2962 RMK A01 T01840004  RH  030%=      5-min Rain = 0
KDO1 212259Z 15014KT 18/00 A2962 RMK A01 T01840003  RH  030%=      5-min Rain = 0
KDO1 212300Z 15015KT 19/00 A2962 RMK A01 T01850003  RH  029%=      5-min Rain = 0
KDO1 212301Z 15014G19KT 19/00 A2962 RMK A01 T01860003  RH  029%=      5-min Rain = 0
KDO1 212302Z 16016KT 19/00 A2962 RMK A01 T01860002  RH  029%=      5-min Rain = 0
KDO1 212303Z 15014KT 19/00 A2962 RMK A01 T01860001  RH  029%=      5-min Rain = 0
KDO1 212304Z 15015G20KT 19/00 A2962 RMK A01 T01860002  RH  029%=      5-min Rain = 0
KDO1 212305Z 15013G18KT 19/00 A2962 RMK A01 T01860001  RH  029%=      5-min Rain = 0
KDO1 212306Z 15013KT 19/00 A2962 RMK A01 T01860002  RH  029%=      5-min Rain = 0
KDO1 212307Z 15015KT 19/00 A2962 RMK A01 T01860002  RH  029%=      5-min Rain = 0
KDO1 212308Z 15014KT 19/00 A2962 RMK A01 T01860002  RH  029%=      5-min Rain = 0
KDO1 212309Z 15013KT 19/00 A2962 RMK A01 T01860002  RH  029%=      5-min Rain = 0
KDO1 212310Z 14013KT 19/00 A2962 RMK A01 T01860002  RH  029%=      5-min Rain = 0
KDO1 212311Z 14013G18KT 19/00 A2962 RMK A01 T01860002  RH  029%=      5-min Rain = 0
KDO1 212312Z 14015KT 19/00 A2962 RMK A01 T01870003  RH  029%=      5-min Rain = 0
KDO1 212313Z 14016KT 19/00 A2962 RMK A01 T01860002  RH  029%=      5-min Rain = 0
KDO1 212314Z 15016KT 19/00 A2962 RMK A01 T01860002  RH  029%=      5-min Rain = 0
KDO1 212315Z 15016KT 19/00 A2962 RMK A01 T01850002  RH  029%=      5-min Rain = 0
KDO1 212316Z 15017KT 19/00 A2962 RMK A01 T01850002  RH  029%=      5-min Rain = 0
KDO1 212317Z 14014KT 18/00 A2962 RMK A01 T01840002  RH  029%=      5-min Rain = 0
KDO1 212318Z 14011KT 18/00 A2962 RMK A01 T01830003  RH  030%=      5-min Rain = 0
KDO1 212319Z 15013KT 18/00 A2962 RMK A01 T01820003  RH  030%=      5-min Rain = 0
KDO1 212320Z 14010KT 18/00 A2962 RMK A01 T01810003  RH  030%=      5-min Rain = 0
KDO1 212321Z 15012KT 18/00 A2962 RMK A01 T01800004  RH  030%=      5-min Rain = 0
KDO1 212322Z 15012KT 18/00 A2961 RMK A01 T01790004  RH  031%=      5-min Rain = 0
KDO1 212323Z 14016KT 18/00 A2961 RMK A01 T01780004  RH  031%=      5-min Rain = 0
KDO1 212324Z 15014KT 18/00 A2961 RMK A01 T01770003  RH  031%=      5-min Rain = 0
KDO1 212325Z 15013KT 18/00 A2961 RMK A01 T01770004  RH  031%=      5-min Rain = 0
KDO1 212326Z 15013KT 18/00 A2961 RMK A01 T01770004  RH  031%=      5-min Rain = 0
KDO1 212327Z 15016KT 18/00 A2962 RMK A01 T01760004  RH  031%=      5-min Rain = 0
KDO1 212328Z 15013KT 18/00 A2962 RMK A01 T01760004  RH  031%=      5-min Rain = 0
KDO1 212329Z 15016KT 18/00 A2962 RMK A01 T01750004  RH  031%=      5-min Rain = 0
KDO1 212330Z 15013KT 18/00 A2962 RMK A01 T01750004  RH  031%=      5-min Rain = 0
KDO1 212331Z 16014KT 17/00 A2962 RMK A01 T01740004  RH  032%=      5-min Rain = 0
KDO1 212332Z 15016KT 17/00 A2962 RMK A01 T01730004  RH  032%=      5-min Rain = 0
KDO1 212333Z 16015G21KT 17/00 A2962 RMK A01 T01730004  RH  032%=      5-min Rain = 0
KDO1 212334Z 15015KT 17/00 A2962 RMK A01 T01740004  RH  032%=      5-min Rain = 0
KDO1 212335Z 16016G21KT 17/00 A2962 RMK A01 T01730004  RH  032%=      5-min Rain = 0
KDO1 212336Z 16015KT 17/01 A2962 RMK A01 T01730005  RH  032%=      5-min Rain = 0
KDO1 212337Z 15018KT 17/00 A2962 RMK A01 T01730004  RH  032%=      5-min Rain = 0
KDO1 212338Z 16016KT 17/01 A2962 RMK A01 T01730005  RH  032%=      5-min Rain = 0
KDO1 212339Z 16014KT 17/01 A2962 RMK A01 T01720005  RH  032%=      5-min Rain = 0
KDO1 212340Z 16016KT 17/01 A2962 RMK A01 T01710005  RH  033%=      5-min Rain = 0
KDO1 212341Z 15014KT 17/01 A2962 RMK A01 T01700005  RH  033%=      5-min Rain = 0
KDO1 212342Z 15015KT 17/01 A2962 RMK A01 T01700005  RH  033%=      5-min Rain = 0
KDO1 212343Z 15014KT 17/01 A2962 RMK A01 T01690005  RH  033%=      5-min Rain = 0
KDO1 212344Z 15012KT 17/01 A2962 RMK A01 T01690005  RH  033%=      5-min Rain = 0
KDO1 212345Z 15016KT 17/01 A2961 RMK A01 T01680005  RH  033%=      5-min Rain = 0
KDO1 212346Z 15014KT 17/01 A2961 RMK A01 T01680006  RH  033%=      5-min Rain = 0
KDO1 212347Z 16013KT 17/01 A2961 RMK A01 T01680006  RH  033%=      5-min Rain = 0
KDO1 212348Z 15013KT 17/01 A2961 RMK A01 T01660006  RH  034%=      5-min Rain = 0
KDO1 212349Z 15012KT 17/01 A2961 RMK A01 T01660006  RH  034%=      5-min Rain = 0
KDO1 212350Z 15013KT 17/01 A2961 RMK A01 T01650006  RH  034%=      5-min Rain = 0
KDO1 212351Z 15014G19KT 16/01 A2961 RMK A01 T01640006  RH  034%=      5-min Rain = 0
KDO1 212352Z 15014KT 16/01 A2961 RMK A01 T01640006  RH  034%=      5-min Rain = 0
KDO1 212353Z 15014KT 16/01 A2961 RMK A01 T01640006  RH  034%=      5-min Rain = 0
KDO1 212354Z 15013KT 16/01 A2961 RMK A01 T01640006  RH  034%=      5-min Rain = 0
KDO1 212355Z 15014KT 16/01 A2961 RMK A01 T01630006  RH  035%=      5-min Rain = 0
KDO1 212356Z 16013KT 16/01 A2961 RMK A01 T01620006  RH  035%=      5-min Rain = 0
KDO1 212357Z 15012G18KT 16/01 A2961 RMK A01 T01610006  RH  035%=      5-min Rain = 0
KDO1 212358Z 15012KT 16/01 A2961 RMK A01 T01600006  RH  035%=      5-min Rain = 0
KDO1 212359Z 15012KT 16/01 A2961 RMK A01 T01600007  RH  035%=      5-min Rain = 0
KDO1 220000Z 15012G17KT 16/01 A2961 RMK A01 T01600006  RH  035%=      5-min Rain = 0
KDO1 220001Z 15015KT 16/01 A2961 RMK A01 T01590007  RH  035%=      5-min Rain = 0
KDO1 220002Z 15013KT 16/01 A2961 RMK A01 T01590006  RH  035%=      5-min Rain = 0
KDO1 220003Z 15013KT 16/01 A2961 RMK A01 T01590007  RH  035%=      5-min Rain = 0
KDO1 220004Z 15014KT 16/01 A2961 RMK A01 T01590006  RH  036%=      5-min Rain = 0
KDO1 220005Z 15015KT 16/01 A2961 RMK A01 T01580007  RH  036%=      5-min Rain = 0
KDO1 220006Z 15012KT 16/01 A2961 RMK A01 T01580006  RH  036%=      5-min Rain = 0
KDO1 220007Z 15014KT 16/01 A2961 RMK A01 T01580006  RH  036%=      5-min Rain = 0
KDO1 220008Z 15013KT 16/01 A2961 RMK A01 T01570006  RH  036%=      5-min Rain = 0
KDO1 220009Z 15016KT 16/01 A2961 RMK A01 T01580006  RH  036%=      5-min Rain = 0
KDO1 220010Z 15013G18KT 16/01 A2961 RMK A01 T01580006  RH  036%=      5-min Rain = 0
KDO1 220011Z 15014G19KT 16/01 A2961 RMK A01 T01580006  RH  036%=      5-min Rain = 0
KDO1 220012Z 15011KT 16/01 A2961 RMK A01 T01580006  RH  036%=      5-min Rain = 0
KDO1 220013Z 15012KT 16/01 A2961 RMK A01 T01570007  RH  036%=      5-min Rain = 0
KDO1 220014Z 15013KT 16/01 A2961 RMK A01 T01560006  RH  036%=      5-min Rain = 0
KDO1 220015Z 15010KT 16/01 A2961 RMK A01 T01560007  RH  036%=      5-min Rain = 0
KDO1 220016Z 14013KT 16/01 A2961 RMK A01 T01550007  RH  036%=      5-min Rain = 0
KDO1 220017Z 15011KT 16/01 A2961 RMK A01 T01550007  RH  037%=      5-min Rain = 0
KDO1 220018Z 15013KT 15/01 A2961 RMK A01 T01540007  RH  037%=      5-min Rain = 0
KDO1 220019Z 14013KT 15/01 A2961 RMK A01 T01540007  RH  037%=      5-min Rain = 0
KDO1 220020Z 15012KT 15/01 A2961 RMK A01 T01540007  RH  037%=      5-min Rain = 0
KDO1 220021Z 14012KT 15/01 A2961 RMK A01 T01540007  RH  037%=      5-min Rain = 0
KDO1 220022Z 14012G17KT 15/01 A2961 RMK A01 T01530007  RH  037%=      5-min Rain = 0
KDO1 220023Z 14013KT 15/01 A2961 RMK A01 T01530007  RH  037%=      5-min Rain = 0
KDO1 220024Z 14012KT 15/01 A2961 RMK A01 T01530007  RH  037%=      5-min Rain = 0
KDO1 220025Z 14011KT 15/01 A2961 RMK A01 T01520007  RH  037%=      5-min Rain = 0
KDO1 220026Z 14010KT 15/01 A2961 RMK A01 T01510007  RH  037%=      5-min Rain = 0
KDO1 220027Z 14014KT 15/01 A2961 RMK A01 T01500007  RH  038%=      5-min Rain = 0
KDO1 220028Z 14012KT 15/01 A2961 RMK A01 T01500006  RH  038%=      5-min Rain = 0
KDO1 220029Z 14012KT 15/01 A2961 RMK A01 T01500007  RH  038%=      5-min Rain = 0
KDO1 220030Z 14011KT 15/01 A2961 RMK A01 T01500007  RH  038%=      5-min Rain = 0
KDO1 220031Z 14010KT 15/01 A2961 RMK A01 T01490007  RH  038%=      5-min Rain = 0
KDO1 220032Z 14010KT 15/01 A2961 RMK A01 T01480007  RH  038%=      5-min Rain = 0
KDO1 220033Z 14010KT 15/01 A2961 RMK A01 T01470007  RH  038%=      5-min Rain = 0
KDO1 220034Z 14011KT 15/01 A2961 RMK A01 T01470007  RH  039%=      5-min Rain = 0
KDO1 220035Z 15009KT 15/01 A2961 RMK A01 T01460007  RH  039%=      5-min Rain = 0
KDO1 220036Z 14010KT 15/01 A2961 RMK A01 T01450007  RH  039%=      5-min Rain = 0
KDO1 220037Z 14009KT 15/01 A2961 RMK A01 T01450007  RH  039%=      5-min Rain = 0
KDO1 220038Z 14010KT 14/01 A2961 RMK A01 T01440007  RH  039%=      5-min Rain = 0
KDO1 220039Z 14010KT 14/01 A2961 RMK A01 T01440007  RH  039%=      5-min Rain = 0
KDO1 220040Z 14011KT 14/01 A2962 RMK A01 T01440008  RH  039%=      5-min Rain = 0
KDO1 220041Z 14011KT 14/01 A2962 RMK A01 T01440007  RH  039%=      5-min Rain = 0
KDO1 220042Z 14010KT 14/01 A2962 RMK A01 T01440007  RH  039%=      5-min Rain = 0
KDO1 220043Z 15012KT 14/01 A2962 RMK A01 T01440008  RH  039%=      5-min Rain = 0
KDO1 220044Z 15010KT 15/01 A2961 RMK A01 T01450008  RH  039%=      5-min Rain = 0
KDO1 220045Z 14011KT 14/01 A2961 RMK A01 T01440008  RH  039%=      5-min Rain = 0
KDO1 220046Z 14010KT 14/01 A2961 RMK A01 T01440009  RH  040%=      5-min Rain = 0
KDO1 220047Z 14011KT 14/01 A2961 RMK A01 T01440009  RH  040%=      5-min Rain = 0
KDO1 220048Z 15011KT 14/01 A2961 RMK A01 T01440008  RH  040%=      5-min Rain = 0
KDO1 220049Z 14011KT 14/01 A2961 RMK A01 T01430008  RH  040%=      5-min Rain = 0
KDO1 220050Z 14010KT 14/01 A2961 RMK A01 T01430009  RH  040%=      5-min Rain = 0
KDO1 220051Z 14011KT 14/01 A2961 RMK A01 T01430009  RH  040%=      5-min Rain = 0
KDO1 220052Z 15010KT 14/01 A2961 RMK A01 T01430009  RH  040%=      5-min Rain = 0
KDO1 220053Z 14010KT 14/01 A2961 RMK A01 T01430009  RH  040%=      5-min Rain = 0
KDO1 220054Z 14011KT 14/01 A2961 RMK A01 T01430010  RH  040%=      5-min Rain = 0
KDO1 220055Z 14009KT 14/01 A2961 RMK A01 T01430010  RH  040%=      5-min Rain = 0
KDO1 220056Z 14011KT 14/01 A2961 RMK A01 T01440010  RH  040%=      5-min Rain = 0
KDO1 220057Z 14009KT 15/01 A2961 RMK A01 T01450010  RH  040%=      5-min Rain = 0
KDO1 220058Z 14010KT 15/01 A2961 RMK A01 T01450011  RH  040%=      5-min Rain = 0
KDO1 220059Z 14010KT 15/01 A2961 RMK A01 T01450011  RH  040%=      5-min Rain = 0
KDO1 220100Z 15011G18KT 15/01 A2961 RMK A01 T01450011  RH  040%=      5-min Rain = 0
KDO1 220101Z 14010KT 15/01 A2961 RMK A01 T01460011  RH  040%=      5-min Rain = 0
KDO1 220102Z 15010KT 15/01 A2961 RMK A01 T01460011  RH  040%=      5-min Rain = 0
KDO1 220103Z 14008KT 15/01 A2961 RMK A01 T01470011  RH  040%=      5-min Rain = 0
KDO1 220104Z 15008KT 15/01 A2961 RMK A01 T01470012  RH  040%=      5-min Rain = 0
KDO1 220105Z 15009KT 15/01 A2961 RMK A01 T01460011  RH  040%=      5-min Rain = 0
KDO1 220106Z 14010KT 15/01 A2961 RMK A01 T01470012  RH  040%=      5-min Rain = 0
KDO1 220107Z 15009KT 15/01 A2961 RMK A01 T01470012  RH  040%=      5-min Rain = 0
KDO1 220108Z 15011KT 15/01 A2961 RMK A01 T01470011  RH  040%=      5-min Rain = 0
KDO1 220109Z 14010KT 15/01 A2961 RMK A01 T01480012  RH  040%=      5-min Rain = 0
KDO1 220110Z 14012KT 15/01 A2961 RMK A01 T01480012  RH  040%=      5-min Rain = 0
KDO1 220111Z 14010KT 15/01 A2961 RMK A01 T01480012  RH  040%=      5-min Rain = 0
KDO1 220112Z 14009KT 15/01 A2961 RMK A01 T01480012  RH  040%=      5-min Rain = 0
KDO1 220113Z 14010KT 15/01 A2961 RMK A01 T01460012  RH  040%=      5-min Rain = 0
KDO1 220114Z 14011G16KT 15/01 A2961 RMK A01 T01470012  RH  040%=      5-min Rain = 0
KDO1 220115Z 14010G15KT 15/01 A2961 RMK A01 T01470012  RH  040%=      5-min Rain = 0
KDO1 220116Z 14011KT 15/01 A2961 RMK A01 T01470012  RH  040%=      5-min Rain = 0
KDO1 220117Z 14009KT 15/01 A2961 RMK A01 T01470012  RH  040%=      5-min Rain = 0
KDO1 220118Z 15010KT 15/01 A2961 RMK A01 T01470012  RH  040%=      5-min Rain = 0
KDO1 220119Z 14009KT 15/01 A2961 RMK A01 T01470012  RH  040%=      5-min Rain = 0
KDO1 220120Z 14011KT 15/01 A2961 RMK A01 T01460012  RH  040%=      5-min Rain = 0
KDO1 220121Z 14011KT 15/01 A2961 RMK A01 T01460012  RH  040%=      5-min Rain = 0
KDO1 220122Z 14008KT 15/01 A2961 RMK A01 T01460012  RH  040%=      5-min Rain = 0
KDO1 220123Z 14008KT 15/01 A2961 RMK A01 T01460013  RH  040%=      5-min Rain = 0
KDO1 220124Z 14012KT 15/01 A2961 RMK A01 T01450012  RH  041%=      5-min Rain = 0
KDO1 220125Z 14012KT 15/01 A2961 RMK A01 T01450012  RH  041%=      5-min Rain = 0
KDO1 220126Z 14010KT 15/01 A2961 RMK A01 T01460013  RH  040%=      5-min Rain = 0
KDO1 220127Z 14010KT 15/01 A2962 RMK A01 T01460013  RH  040%=      5-min Rain = 0
KDO1 220128Z 14011KT 15/01 A2962 RMK A01 T01460013  RH  041%=      5-min Rain = 0
KDO1 220129Z 14009KT 15/01 A2962 RMK A01 T01460013  RH  041%=      5-min Rain = 0
KDO1 220130Z 14011KT 15/01 A2962 RMK A01 T01460014  RH  041%=      5-min Rain = 0
KDO1 220131Z 14009KT 15/01 A2962 RMK A01 T01450013  RH  041%=      5-min Rain = 0
KDO1 220132Z 13012KT 15/01 A2962 RMK A01 T01450013  RH  041%=      5-min Rain = 0
KDO1 220133Z 14010KT 15/01 A2962 RMK A01 T01450014  RH  041%=      5-min Rain = 0
KDO1 220134Z 14011KT 15/01 A2962 RMK A01 T01450014  RH  041%=      5-min Rain = 0
KDO1 220135Z 14010G15KT 15/01 A2962 RMK A01 T01450014  RH  041%=      5-min Rain = 0
KDO1 220136Z 13008KT 15/01 A2962 RMK A01 T01450014  RH  041%=      5-min Rain = 0
KDO1 220137Z 13008KT 14/01 A2962 RMK A01 T01440014  RH  041%=      5-min Rain = 0
KDO1 220138Z 13009KT 14/01 A2962 RMK A01 T01430014  RH  041%=      5-min Rain = 0
KDO1 220139Z 13008KT 14/01 A2962 RMK A01 T01420014  RH  042%=      5-min Rain = 0
KDO1 220140Z 13008KT 14/01 A2962 RMK A01 T01420014  RH  042%=      5-min Rain = 0
KDO1 220141Z 13007KT 14/01 A2962 RMK A01 T01410014  RH  042%=      5-min Rain = 0
KDO1 220142Z 12007KT 14/01 A2962 RMK A01 T01410014  RH  042%=      5-min Rain = 0
KDO1 220143Z 13007KT 14/01 A2962 RMK A01 T01400014  RH  042%=      5-min Rain = 0
KDO1 220144Z 12008KT 14/02 A2962 RMK A01 T01400015  RH  042%=      5-min Rain = 0
KDO1 220145Z 12009KT 14/02 A2962 RMK A01 T01400015  RH  043%=      5-min Rain = 0
KDO1 220146Z 12008KT 14/02 A2962 RMK A01 T01390015  RH  043%=      5-min Rain = 0
KDO1 220147Z 12008KT 14/02 A2962 RMK A01 T01390016  RH  043%=      5-min Rain = 0
KDO1 220148Z 12007KT 14/02 A2962 RMK A01 T01380015  RH  043%=      5-min Rain = 0
KDO1 220149Z 11007KT 14/02 A2962 RMK A01 T01380016  RH  043%=      5-min Rain = 0
KDO1 220150Z 12008KT 14/02 A2962 RMK A01 T01370016  RH  044%=      5-min Rain = 0
KDO1 220151Z 12007KT 14/02 A2962 RMK A01 T01360016  RH  044%=      5-min Rain = 0
KDO1 220152Z 12007KT 14/02 A2962 RMK A01 T01360016  RH  044%=      5-min Rain = 0
KDO1 220153Z 12007KT 14/02 A2962 RMK A01 T01360016  RH  044%=      5-min Rain = 0
KDO1 220154Z 13009KT 14/02 A2962 RMK A01 T01360016  RH  044%=      5-min Rain = 0
KDO1 220155Z 13009G14KT 14/02 A2962 RMK A01 T01360016  RH  044%=      5-min Rain = 0
KDO1 220156Z 13010KT 14/02 A2962 RMK A01 T01360016  RH  044%=      5-min Rain = 0
KDO1 220157Z 13007KT 14/02 A2961 RMK A01 T01360016  RH  044%=      5-min Rain = 0
KDO1 220158Z 13009G14KT 14/02 A2961 RMK A01 T01360016  RH  044%=      5-min Rain = 0
KDO1 220159Z 13011KT 14/02 A2961 RMK A01 T01360017  RH  044%=      5-min Rain = 0
KDO1 220200Z 14010G15KT 14/02 A2961 RMK A01 T01370017  RH  044%=      5-min Rain = 0
KDO1 220201Z 13009KT 14/02 A2961 RMK A01 T01380017  RH  044%=      5-min Rain = 0
KDO1 220202Z 13008G13KT 14/02 A2961 RMK A01 T01390018  RH  044%=      5-min Rain = 0
KDO1 220203Z 14011KT 14/02 A2961 RMK A01 T01380017  RH  044%=      5-min Rain = 0
KDO1 220204Z 14012KT 14/02 A2961 RMK A01 T01380017  RH  044%=      5-min Rain = 0
KDO1 220205Z 14010KT 14/02 A2961 RMK A01 T01390017  RH  044%=      5-min Rain = 0
KDO1 220206Z 14010KT 14/02 A2961 RMK A01 T01390018  RH  044%=      5-min Rain = 0
KDO1 220207Z 15013KT 14/02 A2961 RMK A01 T01390018  RH  044%=      5-min Rain = 0
KDO1 220208Z 15013KT 14/02 A2961 RMK A01 T01390018  RH  044%=      5-min Rain = 0
KDO1 220209Z 15013KT 14/02 A2961 RMK A01 T01400018  RH  044%=      5-min Rain = 0
KDO1 220210Z 15011KT 14/02 A2961 RMK A01 T01400018  RH  044%=      5-min Rain = 0
KDO1 220211Z 15016KT 14/02 A2961 RMK A01 T01400018  RH  043%=      5-min Rain = 0
KDO1 220212Z 15014KT 14/02 A2961 RMK A01 T01410018  RH  043%=      5-min Rain = 0
KDO1 220213Z 15013KT 14/02 A2961 RMK A01 T01410018  RH  043%=      5-min Rain = 0
KDO1 220214Z 15015KT 14/02 A2961 RMK A01 T01420018  RH  043%=      5-min Rain = 0
KDO1 220215Z 16014KT 14/02 A2961 RMK A01 T01420017  RH  043%=      5-min Rain = 0
KDO1 220216Z 15013KT 14/02 A2961 RMK A01 T01420018  RH  043%=      5-min Rain = 0
KDO1 220217Z 16014KT 14/02 A2961 RMK A01 T01420018  RH  043%=      5-min Rain = 0
KDO1 220218Z 15013KT 14/02 A2961 RMK A01 T01420018  RH  043%=      5-min Rain = 0
KDO1 220219Z 15016KT 14/02 A2961 RMK A01 T01410018  RH  043%=      5-min Rain = 0
KDO1 220220Z 15013KT 14/02 A2961 RMK A01 T01410018  RH  043%=      5-min Rain = 0
KDO1 220221Z 16015KT 14/02 A2961 RMK A01 T01410018  RH  043%=      5-min Rain = 0
KDO1 220222Z 16014KT 14/02 A2961 RMK A01 T01410018  RH  043%=      5-min Rain = 0
KDO1 220223Z 15015KT 14/02 A2961 RMK A01 T01410018  RH  043%=      5-min Rain = 0
KDO1 220224Z 15014G19KT 14/02 A2961 RMK A01 T01420018  RH  043%=      5-min Rain = 0
KDO1 220225Z 15014KT 14/02 A2961 RMK A01 T01420018  RH  043%=      5-min Rain = 0
KDO1 220226Z 15016KT 14/02 A2961 RMK A01 T01420018  RH  043%=      5-min Rain = 0
KDO1 220227Z 15014G19KT 14/02 A2961 RMK A01 T01420018  RH  043%=      5-min Rain = 0
KDO1 220228Z 15017KT 14/02 A296 RMK A01 T01420018  RH  043%=      5-min Rain = 0
KDO1 220229Z 15014KT 14/02 A296 RMK A01 T01430018  RH  043%=      5-min Rain = 0
KDO1 220230Z 15013KT 14/02 A2961 RMK A01 T01430018  RH  043%=      5-min Rain = 0
KDO1 220231Z 16016KT 14/02 A296 RMK A01 T01420018  RH  043%=      5-min Rain = 0
KDO1 220232Z 15014G20KT 14/02 A296 RMK A01 T01420018  RH  043%=      5-min Rain = 0
KDO1 220233Z 16014G20KT 14/02 A2961 RMK A01 T01420018  RH  043%=      5-min Rain = 0
KDO1 220234Z 15016G21KT 14/02 A2961 RMK A01 T01420018  RH  043%=      5-min Rain = 0
KDO1 220235Z 15013KT 14/02 A2961 RMK A01 T01420018  RH  043%=      5-min Rain = 0
KDO1 220236Z 15014KT 14/02 A2961 RMK A01 T01420018  RH  043%=      5-min Rain = 0
KDO1 220237Z 16015G20KT 14/02 A2961 RMK A01 T01420018  RH  043%=      5-min Rain = 0
KDO1 220238Z 16013G20KT 14/02 A2961 RMK A01 T01420018  RH  043%=      5-min Rain = 0
KDO1 220239Z 15014KT 14/02 A2961 RMK A01 T01420018  RH  043%=      5-min Rain = 0
KDO1 220240Z 15014KT 14/02 A2961 RMK A01 T01420018  RH  043%=      5-min Rain = 0
KDO1 220241Z 16014KT 14/02 A296 RMK A01 T01420018  RH  043%=      5-min Rain = 0
KDO1 220242Z 15013KT 14/02 A296 RMK A01 T01420017  RH  043%=      5-min Rain = 0
KDO1 220243Z 15013KT 14/02 A296 RMK A01 T01420017  RH  043%=      5-min Rain = 0
KDO1 220244Z 15014KT 14/02 A2961 RMK A01 T01420017  RH  043%=      5-min Rain = 0
KDO1 220245Z 15015KT 14/02 A296 RMK A01 T01420018  RH  043%=      5-min Rain = 0
KDO1 220246Z 15014KT 14/02 A296 RMK A01 T01410018  RH  043%=      5-min Rain = 0
KDO1 220247Z 15013KT 14/02 A296 RMK A01 T01410018  RH  043%=      5-min Rain = 0
KDO1 220248Z 15014KT 14/02 A296 RMK A01 T01410018  RH  043%=      5-min Rain = 0
KDO1 220249Z 15012KT 14/02 A2961 RMK A01 T01410018  RH  043%=      5-min Rain = 0
KDO1 220250Z 15013KT 14/02 A2961 RMK A01 T01390018  RH  044%=      5-min Rain = 0
KDO1 220251Z 15013KT 14/02 A296 RMK A01 T01390018  RH  044%=      5-min Rain = 0
KDO1 220252Z 15013G19KT 14/02 A296 RMK A01 T01390018  RH  044%=      5-min Rain = 0
KDO1 220253Z 15013KT 14/02 A296 RMK A01 T01390017  RH  044%=      5-min Rain = 0
KDO1 220254Z 16016KT 14/02 A296 RMK A01 T01390017  RH  044%=      5-min Rain = 0
KDO1 220255Z 16014KT 14/02 A296 RMK A01 T01390017  RH  043%=      5-min Rain = 0
KDO1 220256Z 16014G19KT 14/02 A296 RMK A01 T01400017  RH  043%=      5-min Rain = 0
KDO1 220257Z 16015G22KT 14/02 A296 RMK A01 T01400017  RH  043%=      5-min Rain = 0
KDO1 220258Z 15012KT 14/02 A296 RMK A01 T01410017  RH  043%=      5-min Rain = 0
KDO1 220259Z 16012KT 14/02 A2961 RMK A01 T01410017  RH  043%=      5-min Rain = 0
KDO1 220300Z 16013KT 14/02 A296 RMK A01 T01400017  RH  043%=      5-min Rain = 0
KDO1 220301Z 16011KT 14/02 A296 RMK A01 T01400017  RH  043%=      5-min Rain = 0
KDO1 220302Z 16016KT 14/02 A296 RMK A01 T01400017  RH  043%=      5-min Rain = 0
KDO1 220303Z 16013G18KT 14/02 A296 RMK A01 T01400017  RH  043%=      5-min Rain = 0
KDO1 220304Z 16014KT 14/02 A296 RMK A01 T01400016  RH  043%=      5-min Rain = 0
KDO1 220305Z 16012KT 14/02 A296 RMK A01 T01410017  RH  043%=      5-min Rain = 0
KDO1 220306Z 16013KT 14/02 A296 RMK A01 T01400017  RH  043%=      5-min Rain = 0
KDO1 220307Z 16014KT 14/02 A296 RMK A01 T01400017  RH  043%=      5-min Rain = 0
KDO1 220308Z 16014KT 14/02 A296 RMK A01 T01390017  RH  043%=      5-min Rain = 0
KDO1 220309Z 16015G20KT 14/02 A296 RMK A01 T01400017  RH  043%=      5-min Rain = 0
KDO1 220310Z 16010KT 14/02 A296 RMK A01 T01410017  RH  043%=      5-min Rain = 0
KDO1 220311Z 16011G17KT 14/02 A296 RMK A01 T01410017  RH  043%=      5-min Rain = 0
KDO1 220312Z 16015KT 14/02 A296 RMK A01 T01400016  RH  043%=      5-min Rain = 0
KDO1 220313Z 16015KT 14/02 A296 RMK A01 T01410016  RH  043%=      5-min Rain = 0
KDO1 220314Z 16014G19KT 14/02 A296 RMK A01 T01420016  RH  043%=      5-min Rain = 0
KDO1 220315Z 17015G20KT 14/02 A296 RMK A01 T01420016  RH  042%=      5-min Rain = 0
KDO1 220316Z 16015KT 14/02 A296 RMK A01 T01420016  RH  042%=      5-min Rain = 0
KDO1 220317Z 16016G21KT 14/02 A296 RMK A01 T01430016  RH  042%=      5-min Rain = 0
KDO1 220318Z 17018G23KT 14/02 A296 RMK A01 T01430016  RH  042%=      5-min Rain = 0
KDO1 220319Z 17017G25KT 14/02 A2961 RMK A01 T01430016  RH  042%=      5-min Rain = 0
KDO1 220320Z 17017G22KT 14/02 A296 RMK A01 T01440016  RH  042%=      5-min Rain = 0
KDO1 220321Z 17018KT 14/02 A296 RMK A01 T01440016  RH  042%=      5-min Rain = 0
KDO1 220322Z 17015KT 14/02 A296 RMK A01 T01440016  RH  042%=      5-min Rain = 0
KDO1 220323Z 17016G23KT 14/02 A2961 RMK A01 T01440016  RH  042%=      5-min Rain = 0
KDO1 220324Z 17016G23KT 14/02 A296 RMK A01 T01440016  RH  042%=      5-min Rain = 0
KDO1 220325Z 17016G21KT 14/02 A296 RMK A01 T01440016  RH  042%=      5-min Rain = 0
KDO1 220326Z 17016G22KT 14/02 A296 RMK A01 T01440016  RH  042%=      5-min Rain = 0
KDO1 220327Z 17015KT 14/02 A296 RMK A01 T01430017  RH  042%=      5-min Rain = 0
KDO1 220328Z 16016G24KT 14/02 A296 RMK A01 T01420016  RH  042%=      5-min Rain = 0
KDO1 220329Z 17019KT 14/02 A296 RMK A01 T01430016  RH  042%=      5-min Rain = 0
KDO1 220330Z 17016KT 14/02 A296 RMK A01 T01430016  RH  042%=      5-min Rain = 0
KDO1 220331Z 17016KT 14/02 A296 RMK A01 T01430017  RH  042%=      5-min Rain = 0
KDO1 220332Z 17014G20KT 14/02 A296 RMK A01 T01430017  RH  042%=      5-min Rain = 0
KDO1 220333Z 17018G23KT 14/02 A296 RMK A01 T01420016  RH  042%=      5-min Rain = 0
KDO1 220334Z 17017G24KT 14/02 A296 RMK A01 T01420016  RH  042%=      5-min Rain = 0
KDO1 220335Z 16016KT 14/02 A296 RMK A01 T01420016  RH  042%=      5-min Rain = 0
KDO1 220336Z 17017G23KT 14/02 A296 RMK A01 T01420017  RH  042%=      5-min Rain = 0
KDO1 220337Z 17018KT 14/02 A296 RMK A01 T01420017  RH  042%=      5-min Rain = 0
KDO1 220338Z 17018KT 14/02 A296 RMK A01 T01420016  RH  042%=      5-min Rain = 0
KDO1 220339Z 17015KT 14/02 A296 RMK A01 T01430016  RH  042%=      5-min Rain = 0
KDO1 220340Z 17017KT 14/02 A296 RMK A01 T01420016  RH  042%=      5-min Rain = 0
KDO1 220341Z 17017G24KT 14/02 A296 RMK A01 T01420016  RH  042%=      5-min Rain = 0
KDO1 220342Z 17016G21KT 14/02 A296 RMK A01 T01420016  RH  042%=      5-min Rain = 0
KDO1 220343Z 17020G25KT 14/02 A296 RMK A01 T01420016  RH  042%=      5-min Rain = 0
KDO1 220344Z 17015G20KT 14/02 A296 RMK A01 T01420017  RH  042%=      5-min Rain = 0
KDO1 220345Z 17018G24KT 14/02 A296 RMK A01 T01420016  RH  042%=      5-min Rain = 0
KDO1 220346Z 17017G22KT 14/02 A296 RMK A01 T01420017  RH  043%=      5-min Rain = 0
KDO1 220347Z 16019KT 14/02 A296 RMK A01 T01420016  RH  043%=      5-min Rain = 0
KDO1 220348Z 17019KT 14/02 A296 RMK A01 T01420016  RH  042%=      5-min Rain = 0
KDO1 220349Z 17015KT 14/02 A296 RMK A01 T01420016  RH  042%=      5-min Rain = 0
KDO1 220350Z 17016KT 14/02 A296 RMK A01 T01410016  RH  043%=      5-min Rain = 0
KDO1 220351Z 17016KT 14/02 A296 RMK A01 T01410016  RH  043%=      5-min Rain = 0
KDO1 220352Z 17019KT 14/02 A296 RMK A01 T01410017  RH  043%=      5-min Rain = 0
KDO1 220353Z 17017KT 14/02 A296 RMK A01 T01400016  RH  043%=      5-min Rain = 0
KDO1 220354Z 17014KT 14/02 A296 RMK A01 T01400016  RH  043%=      5-min Rain = 0
KDO1 220355Z 17019KT 14/02 A296 RMK A01 T01400016  RH  043%=      5-min Rain = 0
KDO1 220356Z 17019G25KT 14/02 A296 RMK A01 T01400016  RH  043%=      5-min Rain = 0
KDO1 220357Z 17020KT 14/02 A296 RMK A01 T01400017  RH  043%=      5-min Rain = 0
KDO1 220358Z 17020G26KT 14/02 A296 RMK A01 T01410016  RH  043%=      5-min Rain = 0
KDO1 220359Z 17021G26KT 14/02 A296 RMK A01 T01410016  RH  043%=      5-min Rain = 0
KDO1 220400Z 17019G24KT 14/02 A296 RMK A01 T01410016  RH  043%=      5-min Rain = 0
KDO1 220401Z 17016KT 14/02 A2961 RMK A01 T01410016  RH  043%=      5-min Rain = 0
KDO1 220402Z 17015G25KT 14/02 A2961 RMK A01 T01400016  RH  043%=      5-min Rain = 0
KDO1 220403Z 17018G24KT 14/02 A2961 RMK A01 T01400016  RH  043%=      5-min Rain = 0
KDO1 220404Z 17014G20KT 14/02 A2961 RMK A01 T01400017  RH  043%=      5-min Rain = 0
KDO1 220405Z 17013KT 14/02 A2961 RMK A01 T01400016  RH  043%=      5-min Rain = 0
KDO1 220406Z 17015KT 14/02 A2961 RMK A01 T01390016  RH  043%=      5-min Rain = 0
KDO1 220407Z 17015KT 14/02 A2961 RMK A01 T01390017  RH  044%=      5-min Rain = 0
KDO1 220408Z 17013KT 14/02 A2961 RMK A01 T01380016  RH  044%=      5-min Rain = 0
KDO1 220409Z 18013G18KT 14/02 A2961 RMK A01 T01380017  RH  044%=      5-min Rain = 0
KDO1 220410Z 17016G22KT 14/02 A2961 RMK A01 T01370016  RH  044%=      5-min Rain = 0
KDO1 220411Z 17016KT 14/02 A2961 RMK A01 T01370016  RH  044%=      5-min Rain = 0
KDO1 220412Z 17016G21KT 14/02 A2961 RMK A01 T01370016  RH  044%=      5-min Rain = 0
KDO1 220413Z 17013G18KT 14/02 A2961 RMK A01 T01380016  RH  044%=      5-min Rain = 0
KDO1 220414Z 17017KT 14/02 A2961 RMK A01 T01380017  RH  044%=      5-min Rain = 0
KDO1 220415Z 17014G20KT 14/02 A2961 RMK A01 T01370016  RH  044%=      5-min Rain = 0
KDO1 220416Z 17014G20KT 14/02 A2961 RMK A01 T01370017  RH  044%=      5-min Rain = 0
KDO1 220417Z 17015KT 14/02 A2961 RMK A01 T01370017  RH  044%=      5-min Rain = 0
KDO1 220418Z 17017KT 14/02 A2961 RMK A01 T01370017  RH  044%=      5-min Rain = 0
KDO1 220419Z 17014KT 14/02 A2961 RMK A01 T01360016  RH  044%=      5-min Rain = 0
KDO1 220420Z 17015KT 14/02 A2961 RMK A01 T01370017  RH  044%=      5-min Rain = 0
KDO1 220421Z 16012KT 14/02 A2961 RMK A01 T01360017  RH  044%=      5-min Rain = 0
KDO1 220422Z 17014G19KT 14/02 A2961 RMK A01 T01360017  RH  044%=      5-min Rain = 0
KDO1 220423Z 16014KT 14/02 A2961 RMK A01 T01350016  RH  044%=      5-min Rain = 0
KDO1 220424Z 17015KT 14/02 A2961 RMK A01 T01350016  RH  044%=      5-min Rain = 0
KDO1 220425Z 17014KT 14/02 A2961 RMK A01 T01350017  RH  045%=      5-min Rain = 0
KDO1 220426Z 16015KT 13/02 A2961 RMK A01 T01340017  RH  045%=      5-min Rain = 0
KDO1 220427Z 16013KT 13/02 A2961 RMK A01 T01340017  RH  045%=      5-min Rain = 0
KDO1 220428Z 17016G21KT 13/02 A2961 RMK A01 T01340017  RH  045%=      5-min Rain = 0
KDO1 220429Z 16014KT 13/02 A2961 RMK A01 T01340017  RH  045%=      5-min Rain = 0
KDO1 220430Z 17015KT 13/02 A2961 RMK A01 T01340017  RH  045%=      5-min Rain = 0
KDO1 220431Z 17014KT 13/02 A2961 RMK A01 T01340017  RH  045%=      5-min Rain = 0
KDO1 220432Z 16013KT 13/02 A2961 RMK A01 T01340017  RH  045%=      5-min Rain = 0
KDO1 220433Z 16013KT 13/02 A2961 RMK A01 T01330017  RH  045%=      5-min Rain = 0
KDO1 220434Z 16012G17KT 13/02 A2961 RMK A01 T01330017  RH  045%=      5-min Rain = 0
KDO1 220435Z 16013G18KT 13/02 A2961 RMK A01 T01330017  RH  045%=      5-min Rain = 0
KDO1 220436Z 17014KT 13/02 A2961 RMK A01 T01330017  RH  045%=      5-min Rain = 0
KDO1 220437Z 16013G18KT 13/02 A2961 RMK A01 T01330017  RH  045%=      5-min Rain = 0
KDO1 220438Z 16012KT 13/02 A2961 RMK A01 T01330018  RH  045%=      5-min Rain = 0
KDO1 220439Z 16014KT 13/02 A2961 RMK A01 T01320017  RH  045%=      5-min Rain = 0
KDO1 220440Z 17017KT 13/02 A2961 RMK A01 T01330017  RH  045%=      5-min Rain = 0
KDO1 220441Z 16012G17KT 13/02 A2961 RMK A01 T01330017  RH  045%=      5-min Rain = 0
KDO1 220442Z 16012KT 13/02 A2961 RMK A01 T01330017  RH  045%=      5-min Rain = 0
KDO1 220443Z 16014KT 13/02 A2961 RMK A01 T01320017  RH  046%=      5-min Rain = 0
KDO1 220444Z 16014KT 13/02 A2961 RMK A01 T01310017  RH  046%=      5-min Rain = 0
KDO1 220445Z 16012KT 13/02 A2961 RMK A01 T01310017  RH  046%=      5-min Rain = 0
KDO1 220446Z 16012KT 13/02 A2961 RMK A01 T01310017  RH  046%=      5-min Rain = 0
KDO1 220447Z 16013KT 13/02 A2961 RMK A01 T01310017  RH  046%=      5-min Rain = 0
KDO1 220448Z 16010G15KT 13/02 A2961 RMK A01 T01320018  RH  046%=      5-min Rain = 0
KDO1 220449Z 17011G17KT 13/02 A2961 RMK A01 T01310018  RH  046%=      5-min Rain = 0
KDO1 220450Z 16010KT 13/02 A2961 RMK A01 T01300017  RH  046%=      5-min Rain = 0
KDO1 220451Z 15013KT 13/02 A2961 RMK A01 T01300017  RH  046%=      5-min Rain = 0
KDO1 220452Z 15010KT 13/02 A2962 RMK A01 T01300017  RH  046%=      5-min Rain = 0
KDO1 220453Z 16010KT 13/02 A2962 RMK A01 T01300017  RH  046%=      5-min Rain = 0
KDO1 220454Z 16010KT 13/02 A2962 RMK A01 T01290017  RH  046%=      5-min Rain = 0
KDO1 220455Z 16011KT 13/02 A2962 RMK A01 T01290018  RH  047%=      5-min Rain = 0
KDO1 220456Z 15011KT 13/02 A2962 RMK A01 T01290017  RH  047%=      5-min Rain = 0
KDO1 220457Z 15011KT 13/02 A2962 RMK A01 T01290018  RH  047%=      5-min Rain = 0
KDO1 220458Z 16013KT 13/02 A2962 RMK A01 T01290017  RH  047%=      5-min Rain = 0
KDO1 220459Z 15010KT 13/02 A2962 RMK A01 T01290017  RH  047%=      5-min Rain = 0
KDO1 220500Z 16011KT 13/02 A2962 RMK A01 T01290018  RH  047%=      5-min Rain = 0
KDO1 220501Z 15011KT 13/02 A2962 RMK A01 T01290018  RH  047%=      5-min Rain = 0
KDO1 220502Z 15010KT 13/02 A2962 RMK A01 T01290017  RH  047%=      5-min Rain = 0
KDO1 220503Z 15010KT 13/02 A2962 RMK A01 T01290017  RH  047%=      5-min Rain = 0
KDO1 220504Z 15009KT 13/02 A2962 RMK A01 T01290018  RH  047%=      5-min Rain = 0
KDO1 220505Z 15009KT 13/02 A2962 RMK A01 T01280017  RH  047%=      5-min Rain = 0
KDO1 220506Z 15009KT 13/02 A2962 RMK A01 T01280018  RH  047%=      5-min Rain = 0
KDO1 220507Z 16009KT 13/02 A2962 RMK A01 T01270018  RH  047%=      5-min Rain = 0
KDO1 220508Z 15008G13KT 13/02 A2962 RMK A01 T01270018  RH  047%=      5-min Rain = 0
KDO1 220509Z 15009KT 13/02 A2962 RMK A01 T01270018  RH  047%=      5-min Rain = 0
KDO1 220510Z 15009KT 13/02 A2962 RMK A01 T01260017  RH  047%=      5-min Rain = 0
KDO1 220511Z 16010KT 13/02 A2962 RMK A01 T01260018  RH  047%=      5-min Rain = 0
KDO1 220512Z 15008KT 13/02 A2962 RMK A01 T01260018  RH  047%=      5-min Rain = 0
KDO1 220513Z 15009KT 13/02 A2962 RMK A01 T01260018  RH  048%=      5-min Rain = 0
KDO1 220514Z 14008KT 13/02 A2962 RMK A01 T01260018  RH  048%=      5-min Rain = 0
KDO1 220515Z 15008KT 13/02 A2962 RMK A01 T01260018  RH  048%=      5-min Rain = 0
KDO1 220516Z 14007KT 12/02 A2962 RMK A01 T01240017  RH  048%=      5-min Rain = 0
KDO1 220517Z 14007KT 12/02 A2962 RMK A01 T01240017  RH  048%=      5-min Rain = 0
KDO1 220518Z 15007KT 12/02 A2962 RMK A01 T01240018  RH  048%=      5-min Rain = 0
KDO1 220519Z 15007KT 12/02 A2962 RMK A01 T01240018  RH  048%=      5-min Rain = 0
KDO1 220520Z 15007KT 12/02 A2962 RMK A01 T01230017  RH  049%=      5-min Rain = 0
KDO1 220521Z 15007KT 12/02 A2962 RMK A01 T01220018  RH  049%=      5-min Rain = 0
KDO1 220522Z 16007KT 12/02 A2962 RMK A01 T01220017  RH  049%=      5-min Rain = 0
KDO1 220523Z 16007KT 12/02 A2962 RMK A01 T01220018  RH  049%=      5-min Rain = 0
KDO1 220524Z 15007KT 12/02 A2962 RMK A01 T01210017  RH  049%=      5-min Rain = 0
KDO1 220525Z 16007KT 12/02 A2962 RMK A01 T01210017  RH  049%=      5-min Rain = 0
KDO1 220526Z 16008KT 12/02 A2962 RMK A01 T01210017  RH  049%=      5-min Rain = 0
KDO1 220527Z 16009KT 12/02 A2962 RMK A01 T01210017  RH  049%=      5-min Rain = 0
KDO1 220528Z 16009KT 12/02 A2962 RMK A01 T01210017  RH  049%=      5-min Rain = 0
KDO1 220529Z 17009KT 12/02 A2962 RMK A01 T01230017  RH  049%=      5-min Rain = 0
KDO1 220530Z 16008KT 12/02 A2962 RMK A01 T01230018  RH  049%=      5-min Rain = 0
KDO1 220531Z 16008KT 12/02 A2962 RMK A01 T01230018  RH  049%=      5-min Rain = 0
KDO1 220532Z 16009KT 12/02 A2962 RMK A01 T01230018  RH  049%=      5-min Rain = 0
KDO1 220533Z 16009KT 12/02 A2962 RMK A01 T01220017  RH  049%=      5-min Rain = 0
KDO1 220534Z 16009KT 12/02 A2962 RMK A01 T01220018  RH  049%=      5-min Rain = 0
KDO1 220535Z 16011KT 12/02 A2962 RMK A01 T01220017  RH  049%=      5-min Rain = 0
KDO1 220536Z 16010KT 12/02 A2962 RMK A01 T01230018  RH  048%=      5-min Rain = 0
KDO1 220537Z 16009KT 12/02 A2962 RMK A01 T01240017  RH  048%=      5-min Rain = 0
KDO1 220538Z 16008KT 12/02 A2962 RMK A01 T01240017  RH  048%=      5-min Rain = 0
KDO1 220539Z 16008KT 12/02 A2962 RMK A01 T01230017  RH  048%=      5-min Rain = 0
KDO1 220540Z 17008KT 12/02 A2962 RMK A01 T01230017  RH  048%=      5-min Rain = 0
KDO1 220541Z 17008KT 12/02 A2962 RMK A01 T01220017  RH  049%=      5-min Rain = 0
KDO1 220542Z 16007KT 12/02 A2962 RMK A01 T01210017  RH  049%=      5-min Rain = 0
KDO1 220543Z 16009KT 12/02 A2962 RMK A01 T01200017  RH  049%=      5-min Rain = 0
KDO1 220544Z 17011KT 12/02 A2962 RMK A01 T01210017  RH  049%=      5-min Rain = 0
KDO1 220545Z 17008KT 12/02 A2962 RMK A01 T01220017  RH  049%=      5-min Rain = 0
KDO1 220546Z 16010KT 12/02 A2962 RMK A01 T01220017  RH  049%=      5-min Rain = 0
KDO1 220547Z 17010KT 12/02 A2962 RMK A01 T01220017  RH  049%=      5-min Rain = 0
KDO1 220548Z 17010KT 12/02 A2962 RMK A01 T01220017  RH  049%=      5-min Rain = 0
KDO1 220549Z 17011KT 12/02 A2962 RMK A01 T01220017  RH  049%=      5-min Rain = 0
KDO1 220550Z 16010KT 12/02 A2962 RMK A01 T01220018  RH  049%=      5-min Rain = 0
KDO1 220551Z 17011KT 12/02 A2962 RMK A01 T01220017  RH  049%=      5-min Rain = 0
KDO1 220552Z 17010KT 12/02 A2962 RMK A01 T01220018  RH  049%=      5-min Rain = 0
KDO1 220553Z 17010KT 12/02 A2962 RMK A01 T01230017  RH  049%=      5-min Rain = 0
KDO1 220554Z 17010KT 12/02 A2962 RMK A01 T01220017  RH  049%=      5-min Rain = 0
KDO1 220555Z 18011KT 12/02 A2962 RMK A01 T01220018  RH  049%=      5-min Rain = 0
KDO1 220556Z 18012KT 12/02 A2962 RMK A01 T01220018  RH  049%=      5-min Rain = 0
KDO1 220557Z 18013KT 12/02 A2962 RMK A01 T01220018  RH  049%=      5-min Rain = 0
KDO1 220558Z 18012KT 12/02 A2962 RMK A01 T01230018  RH  049%=      5-min Rain = 0
KDO1 220559Z 18013KT 12/02 A2962 RMK A01 T01230018  RH  049%=      5-min Rain = 0

Page generated in 0.142 seconds.